<?xml version="1.0" encoding="UTF-8" standalone="no" ?>
<gpx xmlns="http://www.topografix.com/GPX/1/1" xmlns:xsi="http://www.w3.org/2001/XMLSchema-instance" xsi:schemaLocation="http://www.topografix.com/GPX/1/1 http://www.topografix.com/GPX/1/1/gpx.xsd" version="1.1" creator="VisuGPX - https://www.visugpx.com">
  <metadata>
    <name>CHARMANT SOM FATBIKE</name>
    <desc><![CDATA[enfin une piste mixte autorisée au fatbike
avec comme cerise sur le gâteau pour les plus courageux l 'ascension du sommet ]]></desc>
  </metadata>
  <trk>
    <name><![CDATA[Tracé 6 févr. 2016 09:41:46]]></name>
    <trkseg>
      <trkpt lat="45.29472" lon="5.76192">
        <ele>1351</ele>
        <time>2016-02-06T08:41:46Z</time>
      </trkpt>
      <trkpt lat="45.29467" lon="5.76184">
        <ele>1336</ele>
        <time>2016-02-06T08:48:42Z</time>
      </trkpt>
      <trkpt lat="45.29468" lon="5.76164">
        <ele>1348</ele>
        <time>2016-02-06T08:48:47Z</time>
      </trkpt>
      <trkpt lat="45.29469" lon="5.76153">
        <ele>1347</ele>
        <time>2016-02-06T08:48:54Z</time>
      </trkpt>
      <trkpt lat="45.29474" lon="5.76149">
        <ele>1348</ele>
        <time>2016-02-06T08:48:54Z</time>
      </trkpt>
      <trkpt lat="45.29491" lon="5.76023">
        <ele>1354</ele>
        <time>2016-02-06T08:49:25Z</time>
      </trkpt>
      <trkpt lat="45.29503" lon="5.75855">
        <ele>1340</ele>
        <time>2016-02-06T08:49:30Z</time>
      </trkpt>
      <trkpt lat="45.29502" lon="5.75836">
        <ele>1340</ele>
        <time>2016-02-06T08:49:31Z</time>
      </trkpt>
      <trkpt lat="45.29497" lon="5.75801">
        <ele>1338</ele>
        <time>2016-02-06T08:49:45Z</time>
      </trkpt>
      <trkpt lat="45.29488" lon="5.7566">
        <ele>1325</ele>
        <time>2016-02-06T08:49:50Z</time>
      </trkpt>
      <trkpt lat="45.2949" lon="5.7566">
        <ele>1325</ele>
        <time>2016-02-06T08:49:51Z</time>
      </trkpt>
      <trkpt lat="45.29495" lon="5.75651">
        <ele>1323</ele>
        <time>2016-02-06T08:50:00Z</time>
      </trkpt>
      <trkpt lat="45.29489" lon="5.75624">
        <ele>1325</ele>
        <time>2016-02-06T08:50:05Z</time>
      </trkpt>
      <trkpt lat="45.29507" lon="5.75613">
        <ele>1324</ele>
        <time>2016-02-06T08:50:10Z</time>
      </trkpt>
      <trkpt lat="45.29508" lon="5.7561">
        <ele>1324</ele>
        <time>2016-02-06T08:50:11Z</time>
      </trkpt>
      <trkpt lat="45.29522" lon="5.75582">
        <ele>1322</ele>
        <time>2016-02-06T08:50:26Z</time>
      </trkpt>
      <trkpt lat="45.29504" lon="5.75579">
        <ele>1321</ele>
        <time>2016-02-06T08:50:30Z</time>
      </trkpt>
      <trkpt lat="45.29508" lon="5.75574">
        <ele>1307</ele>
        <time>2016-02-06T08:50:51Z</time>
      </trkpt>
      <trkpt lat="45.29515" lon="5.75565">
        <ele>1307</ele>
        <time>2016-02-06T08:51:01Z</time>
      </trkpt>
      <trkpt lat="45.29517" lon="5.75565">
        <ele>1306</ele>
        <time>2016-02-06T08:51:09Z</time>
      </trkpt>
      <trkpt lat="45.29523" lon="5.75554">
        <ele>1306</ele>
        <time>2016-02-06T08:51:11Z</time>
      </trkpt>
      <trkpt lat="45.29516" lon="5.7554">
        <ele>1307</ele>
        <time>2016-02-06T08:51:28Z</time>
      </trkpt>
      <trkpt lat="45.29512" lon="5.75527">
        <ele>1298</ele>
        <time>2016-02-06T08:51:32Z</time>
      </trkpt>
      <trkpt lat="45.29513" lon="5.75525">
        <ele>1299</ele>
        <time>2016-02-06T08:51:33Z</time>
      </trkpt>
      <trkpt lat="45.29501" lon="5.75506">
        <ele>1290</ele>
        <time>2016-02-06T08:51:48Z</time>
      </trkpt>
      <trkpt lat="45.29498" lon="5.75513">
        <ele>1282</ele>
        <time>2016-02-06T08:52:03Z</time>
      </trkpt>
      <trkpt lat="45.29498" lon="5.75501">
        <ele>1267</ele>
        <time>2016-02-06T08:52:11Z</time>
      </trkpt>
      <trkpt lat="45.29495" lon="5.75494">
        <ele>1259</ele>
        <time>2016-02-06T08:52:18Z</time>
      </trkpt>
      <trkpt lat="45.29507" lon="5.7546">
        <ele>1291</ele>
        <time>2016-02-06T08:52:23Z</time>
      </trkpt>
      <trkpt lat="45.29512" lon="5.75444">
        <ele>1314</ele>
        <time>2016-02-06T08:52:27Z</time>
      </trkpt>
      <trkpt lat="45.29511" lon="5.75455">
        <ele>1313</ele>
        <time>2016-02-06T08:52:31Z</time>
      </trkpt>
      <trkpt lat="45.29504" lon="5.7546">
        <ele>1321</ele>
        <time>2016-02-06T08:53:15Z</time>
      </trkpt>
      <trkpt lat="45.29521" lon="5.7544">
        <ele>1340</ele>
        <time>2016-02-06T08:53:18Z</time>
      </trkpt>
      <trkpt lat="45.29557" lon="5.75412">
        <ele>1351</ele>
        <time>2016-02-06T08:53:29Z</time>
      </trkpt>
      <trkpt lat="45.29583" lon="5.75398">
        <ele>1365</ele>
        <time>2016-02-06T08:53:34Z</time>
      </trkpt>
      <trkpt lat="45.29585" lon="5.75389">
        <ele>1364</ele>
        <time>2016-02-06T08:53:36Z</time>
      </trkpt>
      <trkpt lat="45.29586" lon="5.75378">
        <ele>1362</ele>
        <time>2016-02-06T08:53:40Z</time>
      </trkpt>
      <trkpt lat="45.29586" lon="5.75365">
        <ele>1366</ele>
        <time>2016-02-06T08:53:49Z</time>
      </trkpt>
      <trkpt lat="45.29589" lon="5.75357">
        <ele>1371</ele>
        <time>2016-02-06T08:53:54Z</time>
      </trkpt>
      <trkpt lat="45.29589" lon="5.75349">
        <ele>1372</ele>
        <time>2016-02-06T08:54:00Z</time>
      </trkpt>
      <trkpt lat="45.29599" lon="5.75328">
        <ele>1378</ele>
        <time>2016-02-06T08:54:09Z</time>
      </trkpt>
      <trkpt lat="45.29602" lon="5.75324">
        <ele>1381</ele>
        <time>2016-02-06T08:54:15Z</time>
      </trkpt>
      <trkpt lat="45.29608" lon="5.75318">
        <ele>1380</ele>
        <time>2016-02-06T08:54:30Z</time>
      </trkpt>
      <trkpt lat="45.2962" lon="5.753">
        <ele>1381</ele>
        <time>2016-02-06T08:54:34Z</time>
      </trkpt>
      <trkpt lat="45.29627" lon="5.753">
        <ele>1383</ele>
        <time>2016-02-06T08:54:38Z</time>
      </trkpt>
      <trkpt lat="45.29629" lon="5.75299">
        <ele>1384</ele>
        <time>2016-02-06T08:54:42Z</time>
      </trkpt>
      <trkpt lat="45.2964" lon="5.75303">
        <ele>1383</ele>
        <time>2016-02-06T08:54:47Z</time>
      </trkpt>
      <trkpt lat="45.29648" lon="5.75303">
        <ele>1382</ele>
        <time>2016-02-06T08:54:53Z</time>
      </trkpt>
      <trkpt lat="45.29652" lon="5.753">
        <ele>1384</ele>
        <time>2016-02-06T08:55:11Z</time>
      </trkpt>
      <trkpt lat="45.29662" lon="5.75308">
        <ele>1385</ele>
        <time>2016-02-06T08:55:16Z</time>
      </trkpt>
      <trkpt lat="45.29669" lon="5.75307">
        <ele>1383</ele>
        <time>2016-02-06T08:55:51Z</time>
      </trkpt>
      <trkpt lat="45.29697" lon="5.75294">
        <ele>1375</ele>
        <time>2016-02-06T08:55:56Z</time>
      </trkpt>
      <trkpt lat="45.29702" lon="5.75293">
        <ele>1376</ele>
        <time>2016-02-06T08:55:57Z</time>
      </trkpt>
      <trkpt lat="45.29707" lon="5.75289">
        <ele>1377</ele>
        <time>2016-02-06T08:56:11Z</time>
      </trkpt>
      <trkpt lat="45.29754" lon="5.75266">
        <ele>1371</ele>
        <time>2016-02-06T08:56:16Z</time>
      </trkpt>
      <trkpt lat="45.29756" lon="5.75265">
        <ele>1371</ele>
        <time>2016-02-06T08:56:17Z</time>
      </trkpt>
      <trkpt lat="45.29771" lon="5.75256">
        <ele>1373</ele>
        <time>2016-02-06T08:56:32Z</time>
      </trkpt>
      <trkpt lat="45.29807" lon="5.75227">
        <ele>1371</ele>
        <time>2016-02-06T08:56:36Z</time>
      </trkpt>
      <trkpt lat="45.2981" lon="5.75228">
        <ele>1370</ele>
        <time>2016-02-06T08:56:37Z</time>
      </trkpt>
      <trkpt lat="45.2984" lon="5.75241">
        <ele>1365</ele>
        <time>2016-02-06T08:56:51Z</time>
      </trkpt>
      <trkpt lat="45.29867" lon="5.75275">
        <ele>1368</ele>
        <time>2016-02-06T08:56:56Z</time>
      </trkpt>
      <trkpt lat="45.2988" lon="5.75275">
        <ele>1371</ele>
        <time>2016-02-06T08:57:00Z</time>
      </trkpt>
      <trkpt lat="45.29895" lon="5.75268">
        <ele>1376</ele>
        <time>2016-02-06T08:57:12Z</time>
      </trkpt>
      <trkpt lat="45.29914" lon="5.75225">
        <ele>1381</ele>
        <time>2016-02-06T08:57:16Z</time>
      </trkpt>
      <trkpt lat="45.2992" lon="5.75219">
        <ele>1381</ele>
        <time>2016-02-06T08:57:17Z</time>
      </trkpt>
      <trkpt lat="45.29916" lon="5.75206">
        <ele>1382</ele>
        <time>2016-02-06T08:57:32Z</time>
      </trkpt>
      <trkpt lat="45.29945" lon="5.75207">
        <ele>1383</ele>
        <time>2016-02-06T08:57:36Z</time>
      </trkpt>
      <trkpt lat="45.29946" lon="5.75209">
        <ele>1382</ele>
        <time>2016-02-06T08:57:37Z</time>
      </trkpt>
      <trkpt lat="45.29949" lon="5.75219">
        <ele>1386</ele>
        <time>2016-02-06T08:57:52Z</time>
      </trkpt>
      <trkpt lat="45.29955" lon="5.75226">
        <ele>1393</ele>
        <time>2016-02-06T08:57:57Z</time>
      </trkpt>
      <trkpt lat="45.2995" lon="5.75215">
        <ele>1382</ele>
        <time>2016-02-06T08:58:43Z</time>
      </trkpt>
      <trkpt lat="45.29951" lon="5.75226">
        <ele>1384</ele>
        <time>2016-02-06T08:58:58Z</time>
      </trkpt>
      <trkpt lat="45.29953" lon="5.75237">
        <ele>1381</ele>
        <time>2016-02-06T08:59:03Z</time>
      </trkpt>
      <trkpt lat="45.29957" lon="5.75248">
        <ele>1377</ele>
        <time>2016-02-06T08:59:08Z</time>
      </trkpt>
      <trkpt lat="45.2996" lon="5.7526">
        <ele>1375</ele>
        <time>2016-02-06T08:59:13Z</time>
      </trkpt>
      <trkpt lat="45.29965" lon="5.7527">
        <ele>1373</ele>
        <time>2016-02-06T08:59:18Z</time>
      </trkpt>
      <trkpt lat="45.2997" lon="5.7528">
        <ele>1370</ele>
        <time>2016-02-06T08:59:23Z</time>
      </trkpt>
      <trkpt lat="45.29974" lon="5.75292">
        <ele>1367</ele>
        <time>2016-02-06T08:59:28Z</time>
      </trkpt>
      <trkpt lat="45.2998" lon="5.75299">
        <ele>1368</ele>
        <time>2016-02-06T08:59:34Z</time>
      </trkpt>
      <trkpt lat="45.29986" lon="5.75308">
        <ele>1371</ele>
        <time>2016-02-06T08:59:39Z</time>
      </trkpt>
      <trkpt lat="45.29994" lon="5.75313">
        <ele>1372</ele>
        <time>2016-02-06T08:59:45Z</time>
      </trkpt>
      <trkpt lat="45.30006" lon="5.75321">
        <ele>1375</ele>
        <time>2016-02-06T08:59:50Z</time>
      </trkpt>
      <trkpt lat="45.30014" lon="5.75325">
        <ele>1379</ele>
        <time>2016-02-06T08:59:55Z</time>
      </trkpt>
      <trkpt lat="45.30022" lon="5.75328">
        <ele>1381</ele>
        <time>2016-02-06T09:00:00Z</time>
      </trkpt>
      <trkpt lat="45.30029" lon="5.75334">
        <ele>1384</ele>
        <time>2016-02-06T09:00:05Z</time>
      </trkpt>
      <trkpt lat="45.30035" lon="5.75341">
        <ele>1385</ele>
        <time>2016-02-06T09:00:10Z</time>
      </trkpt>
      <trkpt lat="45.30042" lon="5.75345">
        <ele>1385</ele>
        <time>2016-02-06T09:00:15Z</time>
      </trkpt>
      <trkpt lat="45.30051" lon="5.75352">
        <ele>1386</ele>
        <time>2016-02-06T09:00:19Z</time>
      </trkpt>
      <trkpt lat="45.30061" lon="5.75355">
        <ele>1386</ele>
        <time>2016-02-06T09:00:24Z</time>
      </trkpt>
      <trkpt lat="45.30064" lon="5.75362">
        <ele>1386</ele>
        <time>2016-02-06T09:00:29Z</time>
      </trkpt>
      <trkpt lat="45.30069" lon="5.75372">
        <ele>1384</ele>
        <time>2016-02-06T09:00:34Z</time>
      </trkpt>
      <trkpt lat="45.30076" lon="5.75379">
        <ele>1383</ele>
        <time>2016-02-06T09:00:39Z</time>
      </trkpt>
      <trkpt lat="45.30084" lon="5.75381">
        <ele>1381</ele>
        <time>2016-02-06T09:00:43Z</time>
      </trkpt>
      <trkpt lat="45.30096" lon="5.75382">
        <ele>1378</ele>
        <time>2016-02-06T09:00:47Z</time>
      </trkpt>
      <trkpt lat="45.301" lon="5.75391">
        <ele>1379</ele>
        <time>2016-02-06T09:00:53Z</time>
      </trkpt>
      <trkpt lat="45.30101" lon="5.75403">
        <ele>1381</ele>
        <time>2016-02-06T09:01:00Z</time>
      </trkpt>
      <trkpt lat="45.30107" lon="5.7541">
        <ele>1382</ele>
        <time>2016-02-06T09:01:07Z</time>
      </trkpt>
      <trkpt lat="45.30115" lon="5.75415">
        <ele>1380</ele>
        <time>2016-02-06T09:01:10Z</time>
      </trkpt>
      <trkpt lat="45.30118" lon="5.75419">
        <ele>1380</ele>
        <time>2016-02-06T09:01:15Z</time>
      </trkpt>
      <trkpt lat="45.30127" lon="5.75425">
        <ele>1379</ele>
        <time>2016-02-06T09:01:20Z</time>
      </trkpt>
      <trkpt lat="45.30132" lon="5.75434">
        <ele>1379</ele>
        <time>2016-02-06T09:01:27Z</time>
      </trkpt>
      <trkpt lat="45.30139" lon="5.75445">
        <ele>1379</ele>
        <time>2016-02-06T09:01:32Z</time>
      </trkpt>
      <trkpt lat="45.30143" lon="5.75454">
        <ele>1379</ele>
        <time>2016-02-06T09:01:37Z</time>
      </trkpt>
      <trkpt lat="45.30149" lon="5.75461">
        <ele>1378</ele>
        <time>2016-02-06T09:01:41Z</time>
      </trkpt>
      <trkpt lat="45.30156" lon="5.75468">
        <ele>1381</ele>
        <time>2016-02-06T09:01:47Z</time>
      </trkpt>
      <trkpt lat="45.30163" lon="5.75472">
        <ele>1383</ele>
        <time>2016-02-06T09:01:53Z</time>
      </trkpt>
      <trkpt lat="45.3017" lon="5.75478">
        <ele>1385</ele>
        <time>2016-02-06T09:01:58Z</time>
      </trkpt>
      <trkpt lat="45.30174" lon="5.75485">
        <ele>1388</ele>
        <time>2016-02-06T09:02:03Z</time>
      </trkpt>
      <trkpt lat="45.3018" lon="5.75493">
        <ele>1390</ele>
        <time>2016-02-06T09:02:09Z</time>
      </trkpt>
      <trkpt lat="45.30188" lon="5.75499">
        <ele>1393</ele>
        <time>2016-02-06T09:02:15Z</time>
      </trkpt>
      <trkpt lat="45.30195" lon="5.75506">
        <ele>1397</ele>
        <time>2016-02-06T09:02:21Z</time>
      </trkpt>
      <trkpt lat="45.30202" lon="5.75508">
        <ele>1401</ele>
        <time>2016-02-06T09:02:26Z</time>
      </trkpt>
      <trkpt lat="45.30208" lon="5.75517">
        <ele>1406</ele>
        <time>2016-02-06T09:02:32Z</time>
      </trkpt>
      <trkpt lat="45.30215" lon="5.75524">
        <ele>1407</ele>
        <time>2016-02-06T09:02:37Z</time>
      </trkpt>
      <trkpt lat="45.30223" lon="5.75526">
        <ele>1405</ele>
        <time>2016-02-06T09:02:41Z</time>
      </trkpt>
      <trkpt lat="45.3023" lon="5.7553">
        <ele>1403</ele>
        <time>2016-02-06T09:02:45Z</time>
      </trkpt>
      <trkpt lat="45.30234" lon="5.7554">
        <ele>1404</ele>
        <time>2016-02-06T09:02:52Z</time>
      </trkpt>
      <trkpt lat="45.30244" lon="5.75542">
        <ele>1402</ele>
        <time>2016-02-06T09:02:56Z</time>
      </trkpt>
      <trkpt lat="45.30253" lon="5.75548">
        <ele>1400</ele>
        <time>2016-02-06T09:03:01Z</time>
      </trkpt>
      <trkpt lat="45.30259" lon="5.75556">
        <ele>1401</ele>
        <time>2016-02-06T09:03:06Z</time>
      </trkpt>
      <trkpt lat="45.3026" lon="5.75568">
        <ele>1404</ele>
        <time>2016-02-06T09:03:12Z</time>
      </trkpt>
      <trkpt lat="45.30263" lon="5.75576">
        <ele>1405</ele>
        <time>2016-02-06T09:03:17Z</time>
      </trkpt>
      <trkpt lat="45.30267" lon="5.75586">
        <ele>1406</ele>
        <time>2016-02-06T09:03:21Z</time>
      </trkpt>
      <trkpt lat="45.30272" lon="5.75595">
        <ele>1404</ele>
        <time>2016-02-06T09:03:26Z</time>
      </trkpt>
      <trkpt lat="45.30277" lon="5.75599">
        <ele>1403</ele>
        <time>2016-02-06T09:03:29Z</time>
      </trkpt>
      <trkpt lat="45.3028" lon="5.75609">
        <ele>1402</ele>
        <time>2016-02-06T09:03:34Z</time>
      </trkpt>
      <trkpt lat="45.30286" lon="5.75619">
        <ele>1403</ele>
        <time>2016-02-06T09:03:40Z</time>
      </trkpt>
      <trkpt lat="45.30294" lon="5.75624">
        <ele>1404</ele>
        <time>2016-02-06T09:03:46Z</time>
      </trkpt>
      <trkpt lat="45.30301" lon="5.75631">
        <ele>1410</ele>
        <time>2016-02-06T09:04:03Z</time>
      </trkpt>
      <trkpt lat="45.30308" lon="5.75635">
        <ele>1421</ele>
        <time>2016-02-06T09:04:17Z</time>
      </trkpt>
      <trkpt lat="45.30314" lon="5.75637">
        <ele>1421</ele>
        <time>2016-02-06T09:04:23Z</time>
      </trkpt>
      <trkpt lat="45.30336" lon="5.75638">
        <ele>1416</ele>
        <time>2016-02-06T09:04:37Z</time>
      </trkpt>
      <trkpt lat="45.30342" lon="5.75643">
        <ele>1420</ele>
        <time>2016-02-06T09:04:42Z</time>
      </trkpt>
      <trkpt lat="45.30348" lon="5.75643">
        <ele>1418</ele>
        <time>2016-02-06T09:04:56Z</time>
      </trkpt>
      <trkpt lat="45.30363" lon="5.75656">
        <ele>1429</ele>
        <time>2016-02-06T09:05:00Z</time>
      </trkpt>
      <trkpt lat="45.30371" lon="5.75657">
        <ele>1432</ele>
        <time>2016-02-06T09:05:05Z</time>
      </trkpt>
      <trkpt lat="45.30377" lon="5.75664">
        <ele>1440</ele>
        <time>2016-02-06T09:05:13Z</time>
      </trkpt>
      <trkpt lat="45.30386" lon="5.75662">
        <ele>1444</ele>
        <time>2016-02-06T09:05:18Z</time>
      </trkpt>
      <trkpt lat="45.30385" lon="5.7567">
        <ele>1452</ele>
        <time>2016-02-06T09:05:23Z</time>
      </trkpt>
      <trkpt lat="45.30398" lon="5.75679">
        <ele>1458</ele>
        <time>2016-02-06T09:05:39Z</time>
      </trkpt>
      <trkpt lat="45.30406" lon="5.75677">
        <ele>1457</ele>
        <time>2016-02-06T09:05:43Z</time>
      </trkpt>
      <trkpt lat="45.30413" lon="5.75676">
        <ele>1457</ele>
        <time>2016-02-06T09:05:49Z</time>
      </trkpt>
      <trkpt lat="45.30421" lon="5.75673">
        <ele>1457</ele>
        <time>2016-02-06T09:05:54Z</time>
      </trkpt>
      <trkpt lat="45.30426" lon="5.75665">
        <ele>1454</ele>
        <time>2016-02-06T09:06:01Z</time>
      </trkpt>
      <trkpt lat="45.3043" lon="5.75655">
        <ele>1455</ele>
        <time>2016-02-06T09:06:09Z</time>
      </trkpt>
      <trkpt lat="45.30431" lon="5.75648">
        <ele>1456</ele>
        <time>2016-02-06T09:06:18Z</time>
      </trkpt>
      <trkpt lat="45.30442" lon="5.75635">
        <ele>1459</ele>
        <time>2016-02-06T09:06:23Z</time>
      </trkpt>
      <trkpt lat="45.3044" lon="5.75625">
        <ele>1462</ele>
        <time>2016-02-06T09:07:04Z</time>
      </trkpt>
      <trkpt lat="45.30439" lon="5.75615">
        <ele>1462</ele>
        <time>2016-02-06T09:07:09Z</time>
      </trkpt>
      <trkpt lat="45.3043" lon="5.75596">
        <ele>1461</ele>
        <time>2016-02-06T09:07:19Z</time>
      </trkpt>
      <trkpt lat="45.30428" lon="5.75572">
        <ele>1461</ele>
        <time>2016-02-06T09:07:23Z</time>
      </trkpt>
      <trkpt lat="45.30429" lon="5.7557">
        <ele>1461</ele>
        <time>2016-02-06T09:07:24Z</time>
      </trkpt>
      <trkpt lat="45.30429" lon="5.75546">
        <ele>1465</ele>
        <time>2016-02-06T09:07:39Z</time>
      </trkpt>
      <trkpt lat="45.30429" lon="5.75512">
        <ele>1472</ele>
        <time>2016-02-06T09:07:44Z</time>
      </trkpt>
      <trkpt lat="45.30433" lon="5.75501">
        <ele>1475</ele>
        <time>2016-02-06T09:07:52Z</time>
      </trkpt>
      <trkpt lat="45.30434" lon="5.75492">
        <ele>1477</ele>
        <time>2016-02-06T09:07:53Z</time>
      </trkpt>
      <trkpt lat="45.30433" lon="5.75482">
        <ele>1478</ele>
        <time>2016-02-06T09:08:00Z</time>
      </trkpt>
      <trkpt lat="45.30434" lon="5.75465">
        <ele>1479</ele>
        <time>2016-02-06T09:08:04Z</time>
      </trkpt>
      <trkpt lat="45.30433" lon="5.75454">
        <ele>1479</ele>
        <time>2016-02-06T09:08:09Z</time>
      </trkpt>
      <trkpt lat="45.30428" lon="5.75431">
        <ele>1480</ele>
        <time>2016-02-06T09:08:19Z</time>
      </trkpt>
      <trkpt lat="45.30429" lon="5.75419">
        <ele>1481</ele>
        <time>2016-02-06T09:08:24Z</time>
      </trkpt>
      <trkpt lat="45.3043" lon="5.75416">
        <ele>1481</ele>
        <time>2016-02-06T09:08:25Z</time>
      </trkpt>
      <trkpt lat="45.30437" lon="5.75392">
        <ele>1486</ele>
        <time>2016-02-06T09:08:40Z</time>
      </trkpt>
      <trkpt lat="45.30443" lon="5.75393">
        <ele>1491</ele>
        <time>2016-02-06T09:08:44Z</time>
      </trkpt>
      <trkpt lat="45.30446" lon="5.7539">
        <ele>1490</ele>
        <time>2016-02-06T09:08:45Z</time>
      </trkpt>
      <trkpt lat="45.30458" lon="5.75388">
        <ele>1488</ele>
        <time>2016-02-06T09:09:00Z</time>
      </trkpt>
      <trkpt lat="45.30479" lon="5.75379">
        <ele>1491</ele>
        <time>2016-02-06T09:09:04Z</time>
      </trkpt>
      <trkpt lat="45.30483" lon="5.75378">
        <ele>1483</ele>
        <time>2016-02-06T09:09:10Z</time>
      </trkpt>
      <trkpt lat="45.30491" lon="5.75377">
        <ele>1482</ele>
        <time>2016-02-06T09:09:20Z</time>
      </trkpt>
      <trkpt lat="45.30502" lon="5.75367">
        <ele>1483</ele>
        <time>2016-02-06T09:09:24Z</time>
      </trkpt>
      <trkpt lat="45.30502" lon="5.75364">
        <ele>1483</ele>
        <time>2016-02-06T09:09:25Z</time>
      </trkpt>
      <trkpt lat="45.30498" lon="5.7535">
        <ele>1486</ele>
        <time>2016-02-06T09:09:40Z</time>
      </trkpt>
      <trkpt lat="45.30479" lon="5.75348">
        <ele>1490</ele>
        <time>2016-02-06T09:09:44Z</time>
      </trkpt>
      <trkpt lat="45.30478" lon="5.75347">
        <ele>1489</ele>
        <time>2016-02-06T09:09:45Z</time>
      </trkpt>
      <trkpt lat="45.3047" lon="5.75342">
        <ele>1491</ele>
        <time>2016-02-06T09:10:00Z</time>
      </trkpt>
      <trkpt lat="45.30465" lon="5.75344">
        <ele>1485</ele>
        <time>2016-02-06T09:10:40Z</time>
      </trkpt>
      <trkpt lat="45.3044" lon="5.75345">
        <ele>1489</ele>
        <time>2016-02-06T09:10:44Z</time>
      </trkpt>
      <trkpt lat="45.30437" lon="5.75342">
        <ele>1490</ele>
        <time>2016-02-06T09:10:46Z</time>
      </trkpt>
      <trkpt lat="45.3042" lon="5.75321">
        <ele>1500</ele>
        <time>2016-02-06T09:11:00Z</time>
      </trkpt>
      <trkpt lat="45.30413" lon="5.75319">
        <ele>1503</ele>
        <time>2016-02-06T09:11:05Z</time>
      </trkpt>
      <trkpt lat="45.30409" lon="5.7533">
        <ele>1501</ele>
        <time>2016-02-06T09:11:20Z</time>
      </trkpt>
      <trkpt lat="45.30403" lon="5.75347">
        <ele>1503</ele>
        <time>2016-02-06T09:11:24Z</time>
      </trkpt>
      <trkpt lat="45.30399" lon="5.7535">
        <ele>1505</ele>
        <time>2016-02-06T09:11:27Z</time>
      </trkpt>
      <trkpt lat="45.30393" lon="5.7535">
        <ele>1504</ele>
        <time>2016-02-06T09:11:32Z</time>
      </trkpt>
      <trkpt lat="45.30387" lon="5.75347">
        <ele>1505</ele>
        <time>2016-02-06T09:11:37Z</time>
      </trkpt>
      <trkpt lat="45.30384" lon="5.75329">
        <ele>1505</ele>
        <time>2016-02-06T09:11:41Z</time>
      </trkpt>
      <trkpt lat="45.3039" lon="5.75318">
        <ele>1508</ele>
        <time>2016-02-06T09:11:46Z</time>
      </trkpt>
      <trkpt lat="45.30397" lon="5.75311">
        <ele>1511</ele>
        <time>2016-02-06T09:11:50Z</time>
      </trkpt>
      <trkpt lat="45.30401" lon="5.753">
        <ele>1514</ele>
        <time>2016-02-06T09:11:55Z</time>
      </trkpt>
      <trkpt lat="45.30404" lon="5.75291">
        <ele>1516</ele>
        <time>2016-02-06T09:11:59Z</time>
      </trkpt>
      <trkpt lat="45.30409" lon="5.75283">
        <ele>1519</ele>
        <time>2016-02-06T09:12:07Z</time>
      </trkpt>
      <trkpt lat="45.30417" lon="5.75282">
        <ele>1519</ele>
        <time>2016-02-06T09:12:11Z</time>
      </trkpt>
      <trkpt lat="45.30418" lon="5.75283">
        <ele>1519</ele>
        <time>2016-02-06T09:12:13Z</time>
      </trkpt>
      <trkpt lat="45.3043" lon="5.75283">
        <ele>1518</ele>
        <time>2016-02-06T09:12:21Z</time>
      </trkpt>
      <trkpt lat="45.30443" lon="5.7528">
        <ele>1519</ele>
        <time>2016-02-06T09:12:25Z</time>
      </trkpt>
      <trkpt lat="45.30451" lon="5.75278">
        <ele>1517</ele>
        <time>2016-02-06T09:12:30Z</time>
      </trkpt>
      <trkpt lat="45.30459" lon="5.75279">
        <ele>1516</ele>
        <time>2016-02-06T09:12:35Z</time>
      </trkpt>
      <trkpt lat="45.30471" lon="5.75281">
        <ele>1521</ele>
        <time>2016-02-06T09:12:40Z</time>
      </trkpt>
      <trkpt lat="45.30479" lon="5.75276">
        <ele>1521</ele>
        <time>2016-02-06T09:12:46Z</time>
      </trkpt>
      <trkpt lat="45.30489" lon="5.75274">
        <ele>1524</ele>
        <time>2016-02-06T09:12:50Z</time>
      </trkpt>
      <trkpt lat="45.30497" lon="5.75274">
        <ele>1526</ele>
        <time>2016-02-06T09:12:54Z</time>
      </trkpt>
      <trkpt lat="45.30505" lon="5.75274">
        <ele>1529</ele>
        <time>2016-02-06T09:12:59Z</time>
      </trkpt>
      <trkpt lat="45.30515" lon="5.75275">
        <ele>1530</ele>
        <time>2016-02-06T09:13:04Z</time>
      </trkpt>
      <trkpt lat="45.30524" lon="5.75278">
        <ele>1528</ele>
        <time>2016-02-06T09:13:08Z</time>
      </trkpt>
      <trkpt lat="45.30528" lon="5.75279">
        <ele>1527</ele>
        <time>2016-02-06T09:13:10Z</time>
      </trkpt>
      <trkpt lat="45.3054" lon="5.75284">
        <ele>1529</ele>
        <time>2016-02-06T09:13:23Z</time>
      </trkpt>
      <trkpt lat="45.30553" lon="5.75298">
        <ele>1527</ele>
        <time>2016-02-06T09:13:28Z</time>
      </trkpt>
      <trkpt lat="45.30554" lon="5.75299">
        <ele>1523</ele>
        <time>2016-02-06T09:13:31Z</time>
      </trkpt>
      <trkpt lat="45.30562" lon="5.75308">
        <ele>1518</ele>
        <time>2016-02-06T09:13:43Z</time>
      </trkpt>
      <trkpt lat="45.30578" lon="5.75314">
        <ele>1521</ele>
        <time>2016-02-06T09:13:48Z</time>
      </trkpt>
      <trkpt lat="45.30581" lon="5.75316">
        <ele>1522</ele>
        <time>2016-02-06T09:13:51Z</time>
      </trkpt>
      <trkpt lat="45.30587" lon="5.75317">
        <ele>1522</ele>
        <time>2016-02-06T09:13:53Z</time>
      </trkpt>
      <trkpt lat="45.30591" lon="5.75322">
        <ele>1527</ele>
        <time>2016-02-06T09:14:00Z</time>
      </trkpt>
      <trkpt lat="45.30596" lon="5.75325">
        <ele>1528</ele>
        <time>2016-02-06T09:14:04Z</time>
      </trkpt>
      <trkpt lat="45.3061" lon="5.75329">
        <ele>1531</ele>
        <time>2016-02-06T09:14:08Z</time>
      </trkpt>
      <trkpt lat="45.30614" lon="5.75329">
        <ele>1530</ele>
        <time>2016-02-06T09:14:11Z</time>
      </trkpt>
      <trkpt lat="45.30616" lon="5.75341">
        <ele>1531</ele>
        <time>2016-02-06T09:14:23Z</time>
      </trkpt>
      <trkpt lat="45.30628" lon="5.7535">
        <ele>1532</ele>
        <time>2016-02-06T09:14:28Z</time>
      </trkpt>
      <trkpt lat="45.30627" lon="5.75353">
        <ele>1532</ele>
        <time>2016-02-06T09:14:31Z</time>
      </trkpt>
      <trkpt lat="45.30648" lon="5.75356">
        <ele>1532</ele>
        <time>2016-02-06T09:14:43Z</time>
      </trkpt>
      <trkpt lat="45.30659" lon="5.75359">
        <ele>1537</ele>
        <time>2016-02-06T09:14:48Z</time>
      </trkpt>
      <trkpt lat="45.30662" lon="5.75363">
        <ele>1537</ele>
        <time>2016-02-06T09:14:52Z</time>
      </trkpt>
      <trkpt lat="45.30668" lon="5.75364">
        <ele>1539</ele>
        <time>2016-02-06T09:14:59Z</time>
      </trkpt>
      <trkpt lat="45.30677" lon="5.75377">
        <ele>1537</ele>
        <time>2016-02-06T09:15:04Z</time>
      </trkpt>
      <trkpt lat="45.3068" lon="5.75383">
        <ele>1530</ele>
        <time>2016-02-06T09:15:09Z</time>
      </trkpt>
      <trkpt lat="45.30701" lon="5.75399">
        <ele>1530</ele>
        <time>2016-02-06T09:15:23Z</time>
      </trkpt>
      <trkpt lat="45.30706" lon="5.75408">
        <ele>1533</ele>
        <time>2016-02-06T09:15:28Z</time>
      </trkpt>
      <trkpt lat="45.30709" lon="5.75412">
        <ele>1534</ele>
        <time>2016-02-06T09:15:33Z</time>
      </trkpt>
      <trkpt lat="45.30722" lon="5.7542">
        <ele>1533</ele>
        <time>2016-02-06T09:15:43Z</time>
      </trkpt>
      <trkpt lat="45.3073" lon="5.75429">
        <ele>1537</ele>
        <time>2016-02-06T09:15:48Z</time>
      </trkpt>
      <trkpt lat="45.30732" lon="5.7543">
        <ele>1537</ele>
        <time>2016-02-06T09:15:49Z</time>
      </trkpt>
      <trkpt lat="45.30745" lon="5.75438">
        <ele>1542</ele>
        <time>2016-02-06T09:16:04Z</time>
      </trkpt>
      <trkpt lat="45.30759" lon="5.75445">
        <ele>1539</ele>
        <time>2016-02-06T09:16:08Z</time>
      </trkpt>
      <trkpt lat="45.3076" lon="5.75448">
        <ele>1540</ele>
        <time>2016-02-06T09:16:10Z</time>
      </trkpt>
      <trkpt lat="45.30767" lon="5.75458">
        <ele>1543</ele>
        <time>2016-02-06T09:16:25Z</time>
      </trkpt>
      <trkpt lat="45.30779" lon="5.75472">
        <ele>1546</ele>
        <time>2016-02-06T09:16:29Z</time>
      </trkpt>
      <trkpt lat="45.30783" lon="5.75476">
        <ele>1546</ele>
        <time>2016-02-06T09:16:34Z</time>
      </trkpt>
      <trkpt lat="45.30787" lon="5.7548">
        <ele>1542</ele>
        <time>2016-02-06T09:16:45Z</time>
      </trkpt>
      <trkpt lat="45.30799" lon="5.75484">
        <ele>1542</ele>
        <time>2016-02-06T09:16:49Z</time>
      </trkpt>
      <trkpt lat="45.30805" lon="5.75488">
        <ele>1545</ele>
        <time>2016-02-06T09:16:55Z</time>
      </trkpt>
      <trkpt lat="45.30813" lon="5.75489">
        <ele>1549</ele>
        <time>2016-02-06T09:17:00Z</time>
      </trkpt>
      <trkpt lat="45.3082" lon="5.75494">
        <ele>1552</ele>
        <time>2016-02-06T09:17:05Z</time>
      </trkpt>
      <trkpt lat="45.30825" lon="5.75503">
        <ele>1548</ele>
        <time>2016-02-06T09:17:12Z</time>
      </trkpt>
      <trkpt lat="45.30831" lon="5.75508">
        <ele>1546</ele>
        <time>2016-02-06T09:17:17Z</time>
      </trkpt>
      <trkpt lat="45.30839" lon="5.75513">
        <ele>1549</ele>
        <time>2016-02-06T09:17:22Z</time>
      </trkpt>
      <trkpt lat="45.30847" lon="5.75517">
        <ele>1552</ele>
        <time>2016-02-06T09:17:27Z</time>
      </trkpt>
      <trkpt lat="45.30855" lon="5.7552">
        <ele>1552</ele>
        <time>2016-02-06T09:17:33Z</time>
      </trkpt>
      <trkpt lat="45.30857" lon="5.75523">
        <ele>1553</ele>
        <time>2016-02-06T09:17:34Z</time>
      </trkpt>
      <trkpt lat="45.30865" lon="5.75529">
        <ele>1551</ele>
        <time>2016-02-06T09:17:45Z</time>
      </trkpt>
      <trkpt lat="45.30876" lon="5.75542">
        <ele>1551</ele>
        <time>2016-02-06T09:17:50Z</time>
      </trkpt>
      <trkpt lat="45.30876" lon="5.75543">
        <ele>1550</ele>
        <time>2016-02-06T09:17:51Z</time>
      </trkpt>
      <trkpt lat="45.30882" lon="5.75556">
        <ele>1548</ele>
        <time>2016-02-06T09:18:00Z</time>
      </trkpt>
      <trkpt lat="45.30889" lon="5.75561">
        <ele>1551</ele>
        <time>2016-02-06T09:18:51Z</time>
      </trkpt>
      <trkpt lat="45.30895" lon="5.75561">
        <ele>1566</ele>
        <time>2016-02-06T09:20:34Z</time>
      </trkpt>
      <trkpt lat="45.30901" lon="5.75539">
        <ele>1571</ele>
        <time>2016-02-06T09:20:50Z</time>
      </trkpt>
      <trkpt lat="45.30899" lon="5.75539">
        <ele>1575</ele>
        <time>2016-02-06T09:21:35Z</time>
      </trkpt>
      <trkpt lat="45.3088" lon="5.75527">
        <ele>1576</ele>
        <time>2016-02-06T09:21:49Z</time>
      </trkpt>
      <trkpt lat="45.30867" lon="5.75505">
        <ele>1577</ele>
        <time>2016-02-06T09:21:54Z</time>
      </trkpt>
      <trkpt lat="45.30866" lon="5.75503">
        <ele>1577</ele>
        <time>2016-02-06T09:21:55Z</time>
      </trkpt>
      <trkpt lat="45.30862" lon="5.75479">
        <ele>1577</ele>
        <time>2016-02-06T09:22:09Z</time>
      </trkpt>
      <trkpt lat="45.30855" lon="5.75456">
        <ele>1581</ele>
        <time>2016-02-06T09:22:14Z</time>
      </trkpt>
      <trkpt lat="45.30853" lon="5.75455">
        <ele>1584</ele>
        <time>2016-02-06T09:22:15Z</time>
      </trkpt>
      <trkpt lat="45.30848" lon="5.7544">
        <ele>1585</ele>
        <time>2016-02-06T09:22:30Z</time>
      </trkpt>
      <trkpt lat="45.30838" lon="5.75424">
        <ele>1590</ele>
        <time>2016-02-06T09:22:34Z</time>
      </trkpt>
      <trkpt lat="45.30832" lon="5.75415">
        <ele>1592</ele>
        <time>2016-02-06T09:22:39Z</time>
      </trkpt>
      <trkpt lat="45.30825" lon="5.75409">
        <ele>1595</ele>
        <time>2016-02-06T09:22:44Z</time>
      </trkpt>
      <trkpt lat="45.30822" lon="5.75398">
        <ele>1593</ele>
        <time>2016-02-06T09:22:51Z</time>
      </trkpt>
      <trkpt lat="45.30817" lon="5.7539">
        <ele>1593</ele>
        <time>2016-02-06T09:22:55Z</time>
      </trkpt>
      <trkpt lat="45.30811" lon="5.75383">
        <ele>1594</ele>
        <time>2016-02-06T09:23:01Z</time>
      </trkpt>
      <trkpt lat="45.30809" lon="5.75371">
        <ele>1596</ele>
        <time>2016-02-06T09:23:07Z</time>
      </trkpt>
      <trkpt lat="45.30804" lon="5.75361">
        <ele>1597</ele>
        <time>2016-02-06T09:23:13Z</time>
      </trkpt>
      <trkpt lat="45.30802" lon="5.75351">
        <ele>1600</ele>
        <time>2016-02-06T09:23:19Z</time>
      </trkpt>
      <trkpt lat="45.30799" lon="5.75342">
        <ele>1601</ele>
        <time>2016-02-06T09:23:24Z</time>
      </trkpt>
      <trkpt lat="45.30794" lon="5.75333">
        <ele>1603</ele>
        <time>2016-02-06T09:23:32Z</time>
      </trkpt>
      <trkpt lat="45.30788" lon="5.75325">
        <ele>1605</ele>
        <time>2016-02-06T09:23:38Z</time>
      </trkpt>
      <trkpt lat="45.30783" lon="5.75319">
        <ele>1607</ele>
        <time>2016-02-06T09:23:44Z</time>
      </trkpt>
      <trkpt lat="45.30781" lon="5.75316">
        <ele>1608</ele>
        <time>2016-02-06T09:23:45Z</time>
      </trkpt>
      <trkpt lat="45.30776" lon="5.75309">
        <ele>1610</ele>
        <time>2016-02-06T09:23:51Z</time>
      </trkpt>
      <trkpt lat="45.30771" lon="5.75299">
        <ele>1610</ele>
        <time>2016-02-06T09:24:00Z</time>
      </trkpt>
      <trkpt lat="45.30766" lon="5.75291">
        <ele>1610</ele>
        <time>2016-02-06T09:24:07Z</time>
      </trkpt>
      <trkpt lat="45.3076" lon="5.75278">
        <ele>1610</ele>
        <time>2016-02-06T09:24:11Z</time>
      </trkpt>
      <trkpt lat="45.30754" lon="5.7527">
        <ele>1611</ele>
        <time>2016-02-06T09:24:16Z</time>
      </trkpt>
      <trkpt lat="45.3075" lon="5.75263">
        <ele>1612</ele>
        <time>2016-02-06T09:24:21Z</time>
      </trkpt>
      <trkpt lat="45.30746" lon="5.75252">
        <ele>1611</ele>
        <time>2016-02-06T09:24:26Z</time>
      </trkpt>
      <trkpt lat="45.30745" lon="5.75241">
        <ele>1610</ele>
        <time>2016-02-06T09:24:31Z</time>
      </trkpt>
      <trkpt lat="45.30744" lon="5.75229">
        <ele>1610</ele>
        <time>2016-02-06T09:24:36Z</time>
      </trkpt>
      <trkpt lat="45.30741" lon="5.75219">
        <ele>1612</ele>
        <time>2016-02-06T09:24:44Z</time>
      </trkpt>
      <trkpt lat="45.30747" lon="5.7521">
        <ele>1611</ele>
        <time>2016-02-06T09:24:48Z</time>
      </trkpt>
      <trkpt lat="45.30755" lon="5.75215">
        <ele>1613</ele>
        <time>2016-02-06T09:24:53Z</time>
      </trkpt>
      <trkpt lat="45.30761" lon="5.75224">
        <ele>1615</ele>
        <time>2016-02-06T09:24:59Z</time>
      </trkpt>
      <trkpt lat="45.30766" lon="5.75233">
        <ele>1615</ele>
        <time>2016-02-06T09:25:04Z</time>
      </trkpt>
      <trkpt lat="45.30772" lon="5.7524">
        <ele>1617</ele>
        <time>2016-02-06T09:25:09Z</time>
      </trkpt>
      <trkpt lat="45.30778" lon="5.75249">
        <ele>1619</ele>
        <time>2016-02-06T09:25:15Z</time>
      </trkpt>
      <trkpt lat="45.30784" lon="5.75257">
        <ele>1622</ele>
        <time>2016-02-06T09:25:21Z</time>
      </trkpt>
      <trkpt lat="45.30789" lon="5.75267">
        <ele>1621</ele>
        <time>2016-02-06T09:25:28Z</time>
      </trkpt>
      <trkpt lat="45.30796" lon="5.75273">
        <ele>1622</ele>
        <time>2016-02-06T09:25:33Z</time>
      </trkpt>
      <trkpt lat="45.30802" lon="5.75282">
        <ele>1622</ele>
        <time>2016-02-06T09:25:39Z</time>
      </trkpt>
      <trkpt lat="45.3081" lon="5.75287">
        <ele>1622</ele>
        <time>2016-02-06T09:25:45Z</time>
      </trkpt>
      <trkpt lat="45.30817" lon="5.75292">
        <ele>1622</ele>
        <time>2016-02-06T09:25:50Z</time>
      </trkpt>
      <trkpt lat="45.30825" lon="5.75297">
        <ele>1621</ele>
        <time>2016-02-06T09:25:56Z</time>
      </trkpt>
      <trkpt lat="45.30829" lon="5.75301">
        <ele>1621</ele>
        <time>2016-02-06T09:25:59Z</time>
      </trkpt>
      <trkpt lat="45.30837" lon="5.75306">
        <ele>1621</ele>
        <time>2016-02-06T09:26:04Z</time>
      </trkpt>
      <trkpt lat="45.30844" lon="5.75312">
        <ele>1620</ele>
        <time>2016-02-06T09:26:09Z</time>
      </trkpt>
      <trkpt lat="45.30852" lon="5.75317">
        <ele>1622</ele>
        <time>2016-02-06T09:26:14Z</time>
      </trkpt>
      <trkpt lat="45.30857" lon="5.75323">
        <ele>1625</ele>
        <time>2016-02-06T09:26:19Z</time>
      </trkpt>
      <trkpt lat="45.30863" lon="5.75325">
        <ele>1625</ele>
        <time>2016-02-06T09:26:23Z</time>
      </trkpt>
      <trkpt lat="45.3087" lon="5.7533">
        <ele>1632</ele>
        <time>2016-02-06T09:26:32Z</time>
      </trkpt>
      <trkpt lat="45.30881" lon="5.75332">
        <ele>1631</ele>
        <time>2016-02-06T09:26:36Z</time>
      </trkpt>
      <trkpt lat="45.30889" lon="5.75336">
        <ele>1631</ele>
        <time>2016-02-06T09:26:41Z</time>
      </trkpt>
      <trkpt lat="45.30897" lon="5.75342">
        <ele>1632</ele>
        <time>2016-02-06T09:26:50Z</time>
      </trkpt>
      <trkpt lat="45.30907" lon="5.75353">
        <ele>1633</ele>
        <time>2016-02-06T09:26:54Z</time>
      </trkpt>
      <trkpt lat="45.30914" lon="5.75361">
        <ele>1636</ele>
        <time>2016-02-06T09:27:06Z</time>
      </trkpt>
      <trkpt lat="45.30928" lon="5.75375">
        <ele>1636</ele>
        <time>2016-02-06T09:27:10Z</time>
      </trkpt>
      <trkpt lat="45.30936" lon="5.75383">
        <ele>1636</ele>
        <time>2016-02-06T09:27:24Z</time>
      </trkpt>
      <trkpt lat="45.30951" lon="5.75398">
        <ele>1641</ele>
        <time>2016-02-06T09:27:29Z</time>
      </trkpt>
      <trkpt lat="45.30954" lon="5.754">
        <ele>1640</ele>
        <time>2016-02-06T09:27:31Z</time>
      </trkpt>
      <trkpt lat="45.30965" lon="5.75407">
        <ele>1641</ele>
        <time>2016-02-06T09:27:45Z</time>
      </trkpt>
      <trkpt lat="45.3098" lon="5.75407">
        <ele>1640</ele>
        <time>2016-02-06T09:27:49Z</time>
      </trkpt>
      <trkpt lat="45.30988" lon="5.75407">
        <ele>1641</ele>
        <time>2016-02-06T09:27:54Z</time>
      </trkpt>
      <trkpt lat="45.30995" lon="5.75406">
        <ele>1642</ele>
        <time>2016-02-06T09:28:01Z</time>
      </trkpt>
      <trkpt lat="45.31004" lon="5.75405">
        <ele>1643</ele>
        <time>2016-02-06T09:28:06Z</time>
      </trkpt>
      <trkpt lat="45.31011" lon="5.75406">
        <ele>1645</ele>
        <time>2016-02-06T09:28:12Z</time>
      </trkpt>
      <trkpt lat="45.31019" lon="5.75407">
        <ele>1645</ele>
        <time>2016-02-06T09:28:18Z</time>
      </trkpt>
      <trkpt lat="45.31028" lon="5.75409">
        <ele>1646</ele>
        <time>2016-02-06T09:28:24Z</time>
      </trkpt>
      <trkpt lat="45.31034" lon="5.7541">
        <ele>1645</ele>
        <time>2016-02-06T09:28:56Z</time>
      </trkpt>
      <trkpt lat="45.31043" lon="5.75412">
        <ele>1646</ele>
        <time>2016-02-06T09:29:02Z</time>
      </trkpt>
      <trkpt lat="45.31048" lon="5.75414">
        <ele>1647</ele>
        <time>2016-02-06T09:29:05Z</time>
      </trkpt>
      <trkpt lat="45.31056" lon="5.75419">
        <ele>1649</ele>
        <time>2016-02-06T09:29:10Z</time>
      </trkpt>
      <trkpt lat="45.31063" lon="5.75424">
        <ele>1649</ele>
        <time>2016-02-06T09:29:14Z</time>
      </trkpt>
      <trkpt lat="45.31069" lon="5.75428">
        <ele>1649</ele>
        <time>2016-02-06T09:29:18Z</time>
      </trkpt>
      <trkpt lat="45.31074" lon="5.75434">
        <ele>1650</ele>
        <time>2016-02-06T09:29:23Z</time>
      </trkpt>
      <trkpt lat="45.31078" lon="5.75438">
        <ele>1651</ele>
        <time>2016-02-06T09:29:29Z</time>
      </trkpt>
      <trkpt lat="45.31092" lon="5.75446">
        <ele>1652</ele>
        <time>2016-02-06T09:29:33Z</time>
      </trkpt>
      <trkpt lat="45.31098" lon="5.75452">
        <ele>1651</ele>
        <time>2016-02-06T09:29:49Z</time>
      </trkpt>
      <trkpt lat="45.31117" lon="5.75471">
        <ele>1653</ele>
        <time>2016-02-06T09:29:53Z</time>
      </trkpt>
      <trkpt lat="45.3112" lon="5.75481">
        <ele>1654</ele>
        <time>2016-02-06T09:29:58Z</time>
      </trkpt>
      <trkpt lat="45.31121" lon="5.7549">
        <ele>1658</ele>
        <time>2016-02-06T09:31:15Z</time>
      </trkpt>
      <trkpt lat="45.31126" lon="5.75481">
        <ele>1658</ele>
        <time>2016-02-06T09:35:58Z</time>
      </trkpt>
      <trkpt lat="45.31128" lon="5.75479">
        <ele>1658</ele>
        <time>2016-02-06T09:35:59Z</time>
      </trkpt>
      <trkpt lat="45.31136" lon="5.75472">
        <ele>1657</ele>
        <time>2016-02-06T09:36:03Z</time>
      </trkpt>
      <trkpt lat="45.31162" lon="5.75478">
        <ele>1656</ele>
        <time>2016-02-06T09:36:13Z</time>
      </trkpt>
      <trkpt lat="45.31184" lon="5.75479">
        <ele>1656</ele>
        <time>2016-02-06T09:36:18Z</time>
      </trkpt>
      <trkpt lat="45.31199" lon="5.75477">
        <ele>1655</ele>
        <time>2016-02-06T09:36:23Z</time>
      </trkpt>
      <trkpt lat="45.31218" lon="5.75465">
        <ele>1655</ele>
        <time>2016-02-06T09:36:28Z</time>
      </trkpt>
      <trkpt lat="45.31243" lon="5.7544">
        <ele>1654</ele>
        <time>2016-02-06T09:36:33Z</time>
      </trkpt>
      <trkpt lat="45.31262" lon="5.7542">
        <ele>1656</ele>
        <time>2016-02-06T09:36:37Z</time>
      </trkpt>
      <trkpt lat="45.31287" lon="5.75411">
        <ele>1656</ele>
        <time>2016-02-06T09:36:41Z</time>
      </trkpt>
      <trkpt lat="45.31313" lon="5.75399">
        <ele>1656</ele>
        <time>2016-02-06T09:36:45Z</time>
      </trkpt>
      <trkpt lat="45.31335" lon="5.75382">
        <ele>1656</ele>
        <time>2016-02-06T09:36:49Z</time>
      </trkpt>
      <trkpt lat="45.31355" lon="5.75376">
        <ele>1657</ele>
        <time>2016-02-06T09:36:53Z</time>
      </trkpt>
      <trkpt lat="45.31375" lon="5.75376">
        <ele>1658</ele>
        <time>2016-02-06T09:36:58Z</time>
      </trkpt>
      <trkpt lat="45.31368" lon="5.75375">
        <ele>1656</ele>
        <time>2016-02-06T09:37:31Z</time>
      </trkpt>
      <trkpt lat="45.31376" lon="5.75375">
        <ele>1656</ele>
        <time>2016-02-06T09:38:30Z</time>
      </trkpt>
      <trkpt lat="45.31382" lon="5.75378">
        <ele>1656</ele>
        <time>2016-02-06T09:38:34Z</time>
      </trkpt>
      <trkpt lat="45.31395" lon="5.7538">
        <ele>1656</ele>
        <time>2016-02-06T09:38:38Z</time>
      </trkpt>
      <trkpt lat="45.31409" lon="5.75385">
        <ele>1656</ele>
        <time>2016-02-06T09:38:43Z</time>
      </trkpt>
      <trkpt lat="45.31421" lon="5.75385">
        <ele>1657</ele>
        <time>2016-02-06T09:38:47Z</time>
      </trkpt>
      <trkpt lat="45.31424" lon="5.75385">
        <ele>1657</ele>
        <time>2016-02-06T09:38:48Z</time>
      </trkpt>
      <trkpt lat="45.31442" lon="5.75388">
        <ele>1657</ele>
        <time>2016-02-06T09:38:54Z</time>
      </trkpt>
      <trkpt lat="45.31459" lon="5.7539">
        <ele>1658</ele>
        <time>2016-02-06T09:38:58Z</time>
      </trkpt>
      <trkpt lat="45.31464" lon="5.7539">
        <ele>1658</ele>
        <time>2016-02-06T09:39:00Z</time>
      </trkpt>
      <trkpt lat="45.31512" lon="5.75406">
        <ele>1662</ele>
        <time>2016-02-06T09:39:14Z</time>
      </trkpt>
      <trkpt lat="45.31534" lon="5.75423">
        <ele>1663</ele>
        <time>2016-02-06T09:39:18Z</time>
      </trkpt>
      <trkpt lat="45.31542" lon="5.75428">
        <ele>1663</ele>
        <time>2016-02-06T09:39:20Z</time>
      </trkpt>
      <trkpt lat="45.31576" lon="5.75441">
        <ele>1664</ele>
        <time>2016-02-06T09:39:34Z</time>
      </trkpt>
      <trkpt lat="45.31601" lon="5.75448">
        <ele>1667</ele>
        <time>2016-02-06T09:39:38Z</time>
      </trkpt>
      <trkpt lat="45.31613" lon="5.75457">
        <ele>1668</ele>
        <time>2016-02-06T09:39:43Z</time>
      </trkpt>
      <trkpt lat="45.31618" lon="5.75461">
        <ele>1667</ele>
        <time>2016-02-06T09:39:45Z</time>
      </trkpt>
      <trkpt lat="45.31629" lon="5.75472">
        <ele>1668</ele>
        <time>2016-02-06T09:39:50Z</time>
      </trkpt>
      <trkpt lat="45.31636" lon="5.75481">
        <ele>1669</ele>
        <time>2016-02-06T09:39:54Z</time>
      </trkpt>
      <trkpt lat="45.31647" lon="5.75494">
        <ele>1669</ele>
        <time>2016-02-06T09:39:59Z</time>
      </trkpt>
      <trkpt lat="45.31651" lon="5.75499">
        <ele>1670</ele>
        <time>2016-02-06T09:40:01Z</time>
      </trkpt>
      <trkpt lat="45.31667" lon="5.75519">
        <ele>1671</ele>
        <time>2016-02-06T09:40:15Z</time>
      </trkpt>
      <trkpt lat="45.31693" lon="5.7554">
        <ele>1674</ele>
        <time>2016-02-06T09:40:20Z</time>
      </trkpt>
      <trkpt lat="45.31703" lon="5.75545">
        <ele>1674</ele>
        <time>2016-02-06T09:40:24Z</time>
      </trkpt>
      <trkpt lat="45.31714" lon="5.75551">
        <ele>1674</ele>
        <time>2016-02-06T09:40:29Z</time>
      </trkpt>
      <trkpt lat="45.31724" lon="5.75556">
        <ele>1675</ele>
        <time>2016-02-06T09:40:33Z</time>
      </trkpt>
      <trkpt lat="45.31732" lon="5.75566">
        <ele>1675</ele>
        <time>2016-02-06T09:40:37Z</time>
      </trkpt>
      <trkpt lat="45.31739" lon="5.75577">
        <ele>1676</ele>
        <time>2016-02-06T09:40:41Z</time>
      </trkpt>
      <trkpt lat="45.31746" lon="5.75584">
        <ele>1676</ele>
        <time>2016-02-06T09:40:46Z</time>
      </trkpt>
      <trkpt lat="45.31766" lon="5.75593">
        <ele>1677</ele>
        <time>2016-02-06T09:40:56Z</time>
      </trkpt>
      <trkpt lat="45.31785" lon="5.75583">
        <ele>1679</ele>
        <time>2016-02-06T09:41:00Z</time>
      </trkpt>
      <trkpt lat="45.31796" lon="5.75575">
        <ele>1681</ele>
        <time>2016-02-06T09:41:05Z</time>
      </trkpt>
      <trkpt lat="45.31798" lon="5.75573">
        <ele>1681</ele>
        <time>2016-02-06T09:41:06Z</time>
      </trkpt>
      <trkpt lat="45.31811" lon="5.75568">
        <ele>1682</ele>
        <time>2016-02-06T09:41:16Z</time>
      </trkpt>
      <trkpt lat="45.31832" lon="5.7558">
        <ele>1683</ele>
        <time>2016-02-06T09:41:20Z</time>
      </trkpt>
      <trkpt lat="45.31841" lon="5.75587">
        <ele>1684</ele>
        <time>2016-02-06T09:41:24Z</time>
      </trkpt>
      <trkpt lat="45.31848" lon="5.75594">
        <ele>1684</ele>
        <time>2016-02-06T09:41:28Z</time>
      </trkpt>
      <trkpt lat="45.31858" lon="5.75603">
        <ele>1684</ele>
        <time>2016-02-06T09:41:33Z</time>
      </trkpt>
      <trkpt lat="45.31867" lon="5.75611">
        <ele>1684</ele>
        <time>2016-02-06T09:41:37Z</time>
      </trkpt>
      <trkpt lat="45.31876" lon="5.75627">
        <ele>1683</ele>
        <time>2016-02-06T09:41:42Z</time>
      </trkpt>
      <trkpt lat="45.31875" lon="5.75638">
        <ele>1684</ele>
        <time>2016-02-06T09:41:46Z</time>
      </trkpt>
      <trkpt lat="45.31876" lon="5.75651">
        <ele>1690</ele>
        <time>2016-02-06T09:42:43Z</time>
      </trkpt>
      <trkpt lat="45.31877" lon="5.75665">
        <ele>1690</ele>
        <time>2016-02-06T09:42:47Z</time>
      </trkpt>
      <trkpt lat="45.31878" lon="5.75676">
        <ele>1690</ele>
        <time>2016-02-06T09:42:50Z</time>
      </trkpt>
      <trkpt lat="45.31881" lon="5.75702">
        <ele>1689</ele>
        <time>2016-02-06T09:42:59Z</time>
      </trkpt>
      <trkpt lat="45.31883" lon="5.75717">
        <ele>1690</ele>
        <time>2016-02-06T09:43:03Z</time>
      </trkpt>
      <trkpt lat="45.31884" lon="5.7572">
        <ele>1690</ele>
        <time>2016-02-06T09:43:04Z</time>
      </trkpt>
      <trkpt lat="45.3189" lon="5.75742">
        <ele>1689</ele>
        <time>2016-02-06T09:43:19Z</time>
      </trkpt>
      <trkpt lat="45.31893" lon="5.75746">
        <ele>1688</ele>
        <time>2016-02-06T09:44:09Z</time>
      </trkpt>
      <trkpt lat="45.31896" lon="5.75757">
        <ele>1688</ele>
        <time>2016-02-06T09:44:19Z</time>
      </trkpt>
      <trkpt lat="45.31905" lon="5.75803">
        <ele>1687</ele>
        <time>2016-02-06T09:44:24Z</time>
      </trkpt>
      <trkpt lat="45.31905" lon="5.75806">
        <ele>1687</ele>
        <time>2016-02-06T09:44:25Z</time>
      </trkpt>
      <trkpt lat="45.31917" lon="5.75838">
        <ele>1690</ele>
        <time>2016-02-06T09:44:40Z</time>
      </trkpt>
      <trkpt lat="45.31921" lon="5.75848">
        <ele>1692</ele>
        <time>2016-02-06T09:44:44Z</time>
      </trkpt>
      <trkpt lat="45.31925" lon="5.75854">
        <ele>1693</ele>
        <time>2016-02-06T09:44:52Z</time>
      </trkpt>
      <trkpt lat="45.31931" lon="5.75867">
        <ele>1694</ele>
        <time>2016-02-06T09:44:57Z</time>
      </trkpt>
      <trkpt lat="45.31937" lon="5.75875">
        <ele>1696</ele>
        <time>2016-02-06T09:45:02Z</time>
      </trkpt>
      <trkpt lat="45.31943" lon="5.75884">
        <ele>1699</ele>
        <time>2016-02-06T09:45:09Z</time>
      </trkpt>
      <trkpt lat="45.31953" lon="5.75892">
        <ele>1700</ele>
        <time>2016-02-06T09:45:19Z</time>
      </trkpt>
      <trkpt lat="45.31959" lon="5.75899">
        <ele>1700</ele>
        <time>2016-02-06T09:45:25Z</time>
      </trkpt>
      <trkpt lat="45.31963" lon="5.75906">
        <ele>1698</ele>
        <time>2016-02-06T09:50:12Z</time>
      </trkpt>
      <trkpt lat="45.3196" lon="5.75924">
        <ele>1701</ele>
        <time>2016-02-06T09:50:27Z</time>
      </trkpt>
      <trkpt lat="45.31962" lon="5.75936">
        <ele>1707</ele>
        <time>2016-02-06T09:50:37Z</time>
      </trkpt>
      <trkpt lat="45.31964" lon="5.75948">
        <ele>1713</ele>
        <time>2016-02-06T09:50:58Z</time>
      </trkpt>
      <trkpt lat="45.31966" lon="5.7596">
        <ele>1716</ele>
        <time>2016-02-06T09:51:14Z</time>
      </trkpt>
      <trkpt lat="45.31963" lon="5.75971">
        <ele>1716</ele>
        <time>2016-02-06T09:51:32Z</time>
      </trkpt>
      <trkpt lat="45.31959" lon="5.75982">
        <ele>1718</ele>
        <time>2016-02-06T09:51:46Z</time>
      </trkpt>
      <trkpt lat="45.31957" lon="5.75993">
        <ele>1718</ele>
        <time>2016-02-06T09:52:04Z</time>
      </trkpt>
      <trkpt lat="45.31953" lon="5.76005">
        <ele>1722</ele>
        <time>2016-02-06T09:52:21Z</time>
      </trkpt>
      <trkpt lat="45.31952" lon="5.76017">
        <ele>1726</ele>
        <time>2016-02-06T09:52:49Z</time>
      </trkpt>
      <trkpt lat="45.31951" lon="5.76029">
        <ele>1730</ele>
        <time>2016-02-06T09:53:04Z</time>
      </trkpt>
      <trkpt lat="45.31947" lon="5.76039">
        <ele>1734</ele>
        <time>2016-02-06T09:53:18Z</time>
      </trkpt>
      <trkpt lat="45.31943" lon="5.7605">
        <ele>1732</ele>
        <time>2016-02-06T09:53:30Z</time>
      </trkpt>
      <trkpt lat="45.3195" lon="5.76058">
        <ele>1736</ele>
        <time>2016-02-06T09:53:45Z</time>
      </trkpt>
      <trkpt lat="45.31954" lon="5.76069">
        <ele>1738</ele>
        <time>2016-02-06T09:53:59Z</time>
      </trkpt>
      <trkpt lat="45.31962" lon="5.76075">
        <ele>1742</ele>
        <time>2016-02-06T09:54:24Z</time>
      </trkpt>
      <trkpt lat="45.3197" lon="5.76079">
        <ele>1742</ele>
        <time>2016-02-06T09:54:39Z</time>
      </trkpt>
      <trkpt lat="45.31978" lon="5.76082">
        <ele>1743</ele>
        <time>2016-02-06T09:54:53Z</time>
      </trkpt>
      <trkpt lat="45.31986" lon="5.76084">
        <ele>1747</ele>
        <time>2016-02-06T09:55:13Z</time>
      </trkpt>
      <trkpt lat="45.31994" lon="5.76088">
        <ele>1749</ele>
        <time>2016-02-06T09:55:29Z</time>
      </trkpt>
      <trkpt lat="45.32001" lon="5.76092">
        <ele>1752</ele>
        <time>2016-02-06T09:55:39Z</time>
      </trkpt>
      <trkpt lat="45.32009" lon="5.76098">
        <ele>1757</ele>
        <time>2016-02-06T09:56:07Z</time>
      </trkpt>
      <trkpt lat="45.32016" lon="5.76101">
        <ele>1758</ele>
        <time>2016-02-06T09:56:15Z</time>
      </trkpt>
      <trkpt lat="45.32025" lon="5.76101">
        <ele>1760</ele>
        <time>2016-02-06T09:56:32Z</time>
      </trkpt>
      <trkpt lat="45.32033" lon="5.76104">
        <ele>1763</ele>
        <time>2016-02-06T09:56:47Z</time>
      </trkpt>
      <trkpt lat="45.32042" lon="5.76106">
        <ele>1765</ele>
        <time>2016-02-06T09:57:14Z</time>
      </trkpt>
      <trkpt lat="45.3205" lon="5.76104">
        <ele>1769</ele>
        <time>2016-02-06T09:57:27Z</time>
      </trkpt>
      <trkpt lat="45.32058" lon="5.76106">
        <ele>1773</ele>
        <time>2016-02-06T09:57:37Z</time>
      </trkpt>
      <trkpt lat="45.32066" lon="5.76107">
        <ele>1777</ele>
        <time>2016-02-06T09:58:03Z</time>
      </trkpt>
      <trkpt lat="45.32075" lon="5.76113">
        <ele>1782</ele>
        <time>2016-02-06T09:58:26Z</time>
      </trkpt>
      <trkpt lat="45.32081" lon="5.76117">
        <ele>1789</ele>
        <time>2016-02-06T09:59:39Z</time>
      </trkpt>
      <trkpt lat="45.3209" lon="5.76117">
        <ele>1789</ele>
        <time>2016-02-06T09:59:50Z</time>
      </trkpt>
      <trkpt lat="45.32099" lon="5.76117">
        <ele>1792</ele>
        <time>2016-02-06T10:00:02Z</time>
      </trkpt>
      <trkpt lat="45.32107" lon="5.7612">
        <ele>1794</ele>
        <time>2016-02-06T10:00:09Z</time>
      </trkpt>
      <trkpt lat="45.32114" lon="5.76126">
        <ele>1796</ele>
        <time>2016-02-06T10:00:15Z</time>
      </trkpt>
      <trkpt lat="45.32123" lon="5.76129">
        <ele>1799</ele>
        <time>2016-02-06T10:00:24Z</time>
      </trkpt>
      <trkpt lat="45.32131" lon="5.76132">
        <ele>1801</ele>
        <time>2016-02-06T10:00:40Z</time>
      </trkpt>
      <trkpt lat="45.3214" lon="5.76134">
        <ele>1803</ele>
        <time>2016-02-06T10:00:57Z</time>
      </trkpt>
      <trkpt lat="45.32147" lon="5.76137">
        <ele>1810</ele>
        <time>2016-02-06T10:01:21Z</time>
      </trkpt>
      <trkpt lat="45.32156" lon="5.76137">
        <ele>1814</ele>
        <time>2016-02-06T10:01:43Z</time>
      </trkpt>
      <trkpt lat="45.32164" lon="5.76141">
        <ele>1815</ele>
        <time>2016-02-06T10:01:59Z</time>
      </trkpt>
      <trkpt lat="45.32172" lon="5.76145">
        <ele>1817</ele>
        <time>2016-02-06T10:02:19Z</time>
      </trkpt>
      <trkpt lat="45.32181" lon="5.76145">
        <ele>1823</ele>
        <time>2016-02-06T10:02:36Z</time>
      </trkpt>
      <trkpt lat="45.32189" lon="5.76148">
        <ele>1825</ele>
        <time>2016-02-06T10:02:57Z</time>
      </trkpt>
      <trkpt lat="45.32198" lon="5.76146">
        <ele>1831</ele>
        <time>2016-02-06T10:03:19Z</time>
      </trkpt>
      <trkpt lat="45.32205" lon="5.76145">
        <ele>1832</ele>
        <time>2016-02-06T10:03:36Z</time>
      </trkpt>
      <trkpt lat="45.32213" lon="5.76151">
        <ele>1836</ele>
        <time>2016-02-06T10:03:55Z</time>
      </trkpt>
      <trkpt lat="45.32218" lon="5.76152">
        <ele>1838</ele>
        <time>2016-02-06T10:04:04Z</time>
      </trkpt>
      <trkpt lat="45.32224" lon="5.76157">
        <ele>1843</ele>
        <time>2016-02-06T10:04:19Z</time>
      </trkpt>
      <trkpt lat="45.32228" lon="5.76158">
        <ele>1845</ele>
        <time>2016-02-06T10:04:24Z</time>
      </trkpt>
      <trkpt lat="45.32236" lon="5.76165">
        <ele>1846</ele>
        <time>2016-02-06T10:04:38Z</time>
      </trkpt>
      <trkpt lat="45.32241" lon="5.76168">
        <ele>1847</ele>
        <time>2016-02-06T10:04:53Z</time>
      </trkpt>
      <trkpt lat="45.32249" lon="5.76174">
        <ele>1849</ele>
        <time>2016-02-06T10:04:57Z</time>
      </trkpt>
      <trkpt lat="45.32256" lon="5.76178">
        <ele>1851</ele>
        <time>2016-02-06T10:05:08Z</time>
      </trkpt>
      <trkpt lat="45.32251" lon="5.76167">
        <ele>1855</ele>
        <time>2016-02-06T10:05:42Z</time>
      </trkpt>
      <trkpt lat="45.32257" lon="5.76174">
        <ele>1857</ele>
        <time>2016-02-06T10:06:40Z</time>
      </trkpt>
      <trkpt lat="45.32265" lon="5.76176">
        <ele>1859</ele>
        <time>2016-02-06T10:07:08Z</time>
      </trkpt>
      <trkpt lat="45.3227" lon="5.76176">
        <ele>1859</ele>
        <time>2016-02-06T10:07:14Z</time>
      </trkpt>
      <trkpt lat="45.32284" lon="5.76182">
        <ele>1858</ele>
        <time>2016-02-06T10:07:17Z</time>
      </trkpt>
      <trkpt lat="45.32293" lon="5.76183">
        <ele>1859</ele>
        <time>2016-02-06T10:07:21Z</time>
      </trkpt>
      <trkpt lat="45.323" lon="5.7619">
        <ele>1862</ele>
        <time>2016-02-06T10:07:34Z</time>
      </trkpt>
      <trkpt lat="45.32305" lon="5.762">
        <ele>1860</ele>
        <time>2016-02-06T10:07:44Z</time>
      </trkpt>
      <trkpt lat="45.32312" lon="5.76209">
        <ele>1858</ele>
        <time>2016-02-06T10:07:48Z</time>
      </trkpt>
      <trkpt lat="45.32322" lon="5.76222">
        <ele>1855</ele>
        <time>2016-02-06T10:07:52Z</time>
      </trkpt>
      <trkpt lat="45.32324" lon="5.76227">
        <ele>1850</ele>
        <time>2016-02-06T10:10:07Z</time>
      </trkpt>
      <trkpt lat="45.32331" lon="5.7623">
        <ele>1851</ele>
        <time>2016-02-06T10:10:21Z</time>
      </trkpt>
      <trkpt lat="45.32342" lon="5.76247">
        <ele>1849</ele>
        <time>2016-02-06T10:10:26Z</time>
      </trkpt>
      <trkpt lat="45.32344" lon="5.7625">
        <ele>1849</ele>
        <time>2016-02-06T10:10:27Z</time>
      </trkpt>
      <trkpt lat="45.32362" lon="5.76275">
        <ele>1847</ele>
        <time>2016-02-06T10:10:41Z</time>
      </trkpt>
      <trkpt lat="45.32366" lon="5.76285">
        <ele>1847</ele>
        <time>2016-02-06T10:10:47Z</time>
      </trkpt>
      <trkpt lat="45.32372" lon="5.76294">
        <ele>1848</ele>
        <time>2016-02-06T10:11:00Z</time>
      </trkpt>
      <trkpt lat="45.32379" lon="5.76305">
        <ele>1849</ele>
        <time>2016-02-06T10:11:04Z</time>
      </trkpt>
      <trkpt lat="45.32381" lon="5.76308">
        <ele>1850</ele>
        <time>2016-02-06T10:11:07Z</time>
      </trkpt>
      <trkpt lat="45.32387" lon="5.76318">
        <ele>1852</ele>
        <time>2016-02-06T10:11:21Z</time>
      </trkpt>
      <trkpt lat="45.32392" lon="5.76326">
        <ele>1853</ele>
        <time>2016-02-06T10:11:26Z</time>
      </trkpt>
      <trkpt lat="45.32399" lon="5.76333">
        <ele>1854</ele>
        <time>2016-02-06T10:11:35Z</time>
      </trkpt>
      <trkpt lat="45.32406" lon="5.7634">
        <ele>1857</ele>
        <time>2016-02-06T10:11:46Z</time>
      </trkpt>
      <trkpt lat="45.32414" lon="5.76346">
        <ele>1860</ele>
        <time>2016-02-06T10:11:59Z</time>
      </trkpt>
      <trkpt lat="45.32421" lon="5.76353">
        <ele>1863</ele>
        <time>2016-02-06T10:12:11Z</time>
      </trkpt>
      <trkpt lat="45.32422" lon="5.76354">
        <ele>1864</ele>
        <time>2016-02-06T10:12:12Z</time>
      </trkpt>
      <trkpt lat="45.32429" lon="5.76362">
        <ele>1865</ele>
        <time>2016-02-06T10:12:26Z</time>
      </trkpt>
      <trkpt lat="45.3243" lon="5.76362">
        <ele>1865</ele>
        <time>2016-02-06T10:12:31Z</time>
      </trkpt>
      <trkpt lat="45.32438" lon="5.76369">
        <ele>1866</ele>
        <time>2016-02-06T10:12:42Z</time>
      </trkpt>
      <trkpt lat="45.32444" lon="5.76375">
        <ele>1867</ele>
        <time>2016-02-06T10:12:51Z</time>
      </trkpt>
      <trkpt lat="45.32453" lon="5.76378">
        <ele>1870</ele>
        <time>2016-02-06T10:13:10Z</time>
      </trkpt>
      <trkpt lat="45.32461" lon="5.76379">
        <ele>1873</ele>
        <time>2016-02-06T10:13:23Z</time>
      </trkpt>
      <trkpt lat="45.32469" lon="5.76385">
        <ele>1875</ele>
        <time>2016-02-06T10:13:37Z</time>
      </trkpt>
      <trkpt lat="45.32477" lon="5.76388">
        <ele>1876</ele>
        <time>2016-02-06T10:13:51Z</time>
      </trkpt>
      <trkpt lat="45.32485" lon="5.76392">
        <ele>1878</ele>
        <time>2016-02-06T10:14:01Z</time>
      </trkpt>
      <trkpt lat="45.32491" lon="5.764">
        <ele>1881</ele>
        <time>2016-02-06T10:14:13Z</time>
      </trkpt>
      <trkpt lat="45.32495" lon="5.76404">
        <ele>1883</ele>
        <time>2016-02-06T10:14:18Z</time>
      </trkpt>
      <trkpt lat="45.32502" lon="5.7641">
        <ele>1885</ele>
        <time>2016-02-06T10:14:28Z</time>
      </trkpt>
      <trkpt lat="45.32507" lon="5.76418">
        <ele>1888</ele>
        <time>2016-02-06T10:17:05Z</time>
      </trkpt>
      <trkpt lat="45.32516" lon="5.76421">
        <ele>1888</ele>
        <time>2016-02-06T10:17:09Z</time>
      </trkpt>
      <trkpt lat="45.3251" lon="5.76423">
        <ele>1896</ele>
        <time>2016-02-06T10:22:17Z</time>
      </trkpt>
      <trkpt lat="45.32502" lon="5.76421">
        <ele>1892</ele>
        <time>2016-02-06T10:22:36Z</time>
      </trkpt>
      <trkpt lat="45.32498" lon="5.76411">
        <ele>1893</ele>
        <time>2016-02-06T10:22:52Z</time>
      </trkpt>
      <trkpt lat="45.3249" lon="5.76402">
        <ele>1891</ele>
        <time>2016-02-06T10:22:56Z</time>
      </trkpt>
      <trkpt lat="45.32484" lon="5.76398">
        <ele>1891</ele>
        <time>2016-02-06T10:23:09Z</time>
      </trkpt>
      <trkpt lat="45.3247" lon="5.76394">
        <ele>1889</ele>
        <time>2016-02-06T10:23:13Z</time>
      </trkpt>
      <trkpt lat="45.3246" lon="5.76389">
        <ele>1889</ele>
        <time>2016-02-06T10:23:18Z</time>
      </trkpt>
      <trkpt lat="45.32458" lon="5.76386">
        <ele>1890</ele>
        <time>2016-02-06T10:24:02Z</time>
      </trkpt>
      <trkpt lat="45.32421" lon="5.76366">
        <ele>1884</ele>
        <time>2016-02-06T10:24:16Z</time>
      </trkpt>
      <trkpt lat="45.32391" lon="5.76338">
        <ele>1879</ele>
        <time>2016-02-06T10:24:20Z</time>
      </trkpt>
      <trkpt lat="45.32382" lon="5.76323">
        <ele>1879</ele>
        <time>2016-02-06T10:24:22Z</time>
      </trkpt>
      <trkpt lat="45.32359" lon="5.76284">
        <ele>1879</ele>
        <time>2016-02-06T10:24:36Z</time>
      </trkpt>
      <trkpt lat="45.32348" lon="5.76258">
        <ele>1879</ele>
        <time>2016-02-06T10:24:40Z</time>
      </trkpt>
      <trkpt lat="45.3234" lon="5.76246">
        <ele>1877</ele>
        <time>2016-02-06T10:24:45Z</time>
      </trkpt>
      <trkpt lat="45.32335" lon="5.76242">
        <ele>1877</ele>
        <time>2016-02-06T10:24:50Z</time>
      </trkpt>
      <trkpt lat="45.32327" lon="5.7623">
        <ele>1878</ele>
        <time>2016-02-06T10:24:57Z</time>
      </trkpt>
      <trkpt lat="45.32317" lon="5.7622">
        <ele>1877</ele>
        <time>2016-02-06T10:25:01Z</time>
      </trkpt>
      <trkpt lat="45.32312" lon="5.76215">
        <ele>1877</ele>
        <time>2016-02-06T10:25:03Z</time>
      </trkpt>
      <trkpt lat="45.32312" lon="5.76207">
        <ele>1878</ele>
        <time>2016-02-06T10:26:18Z</time>
      </trkpt>
      <trkpt lat="45.32299" lon="5.76193">
        <ele>1873</ele>
        <time>2016-02-06T10:26:23Z</time>
      </trkpt>
      <trkpt lat="45.32296" lon="5.76188">
        <ele>1871</ele>
        <time>2016-02-06T10:26:32Z</time>
      </trkpt>
      <trkpt lat="45.32271" lon="5.76182">
        <ele>1865</ele>
        <time>2016-02-06T10:26:33Z</time>
      </trkpt>
      <trkpt lat="45.32262" lon="5.7618">
        <ele>1863</ele>
        <time>2016-02-06T10:26:38Z</time>
      </trkpt>
      <trkpt lat="45.32255" lon="5.76172">
        <ele>1862</ele>
        <time>2016-02-06T10:26:42Z</time>
      </trkpt>
      <trkpt lat="45.32254" lon="5.7617">
        <ele>1862</ele>
        <time>2016-02-06T10:26:45Z</time>
      </trkpt>
      <trkpt lat="45.32246" lon="5.76165">
        <ele>1860</ele>
        <time>2016-02-06T10:26:55Z</time>
      </trkpt>
      <trkpt lat="45.32238" lon="5.76165">
        <ele>1858</ele>
        <time>2016-02-06T10:27:10Z</time>
      </trkpt>
      <trkpt lat="45.32229" lon="5.76163">
        <ele>1856</ele>
        <time>2016-02-06T10:27:24Z</time>
      </trkpt>
      <trkpt lat="45.32221" lon="5.76162">
        <ele>1850</ele>
        <time>2016-02-06T10:27:44Z</time>
      </trkpt>
      <trkpt lat="45.32214" lon="5.76157">
        <ele>1845</ele>
        <time>2016-02-06T10:27:51Z</time>
      </trkpt>
      <trkpt lat="45.32206" lon="5.76152">
        <ele>1842</ele>
        <time>2016-02-06T10:27:56Z</time>
      </trkpt>
      <trkpt lat="45.32196" lon="5.76148">
        <ele>1842</ele>
        <time>2016-02-06T10:28:00Z</time>
      </trkpt>
      <trkpt lat="45.32186" lon="5.76148">
        <ele>1839</ele>
        <time>2016-02-06T10:28:04Z</time>
      </trkpt>
      <trkpt lat="45.32178" lon="5.76146">
        <ele>1836</ele>
        <time>2016-02-06T10:28:08Z</time>
      </trkpt>
      <trkpt lat="45.32171" lon="5.76149">
        <ele>1835</ele>
        <time>2016-02-06T10:28:12Z</time>
      </trkpt>
      <trkpt lat="45.32165" lon="5.76144">
        <ele>1831</ele>
        <time>2016-02-06T10:28:46Z</time>
      </trkpt>
      <trkpt lat="45.32151" lon="5.76136">
        <ele>1831</ele>
        <time>2016-02-06T10:28:51Z</time>
      </trkpt>
      <trkpt lat="45.32138" lon="5.76132">
        <ele>1828</ele>
        <time>2016-02-06T10:28:55Z</time>
      </trkpt>
      <trkpt lat="45.32126" lon="5.76124">
        <ele>1825</ele>
        <time>2016-02-06T10:29:00Z</time>
      </trkpt>
      <trkpt lat="45.32109" lon="5.76122">
        <ele>1819</ele>
        <time>2016-02-06T10:29:04Z</time>
      </trkpt>
      <trkpt lat="45.32099" lon="5.76114">
        <ele>1816</ele>
        <time>2016-02-06T10:29:07Z</time>
      </trkpt>
      <trkpt lat="45.32069" lon="5.76108">
        <ele>1804</ele>
        <time>2016-02-06T10:29:17Z</time>
      </trkpt>
      <trkpt lat="45.3206" lon="5.76105">
        <ele>1802</ele>
        <time>2016-02-06T10:29:22Z</time>
      </trkpt>
      <trkpt lat="45.32043" lon="5.76106">
        <ele>1794</ele>
        <time>2016-02-06T10:29:26Z</time>
      </trkpt>
      <trkpt lat="45.32037" lon="5.76101">
        <ele>1786</ele>
        <time>2016-02-06T10:30:05Z</time>
      </trkpt>
      <trkpt lat="45.32032" lon="5.761">
        <ele>1785</ele>
        <time>2016-02-06T10:30:07Z</time>
      </trkpt>
      <trkpt lat="45.32019" lon="5.76097">
        <ele>1780</ele>
        <time>2016-02-06T10:30:20Z</time>
      </trkpt>
      <trkpt lat="45.31993" lon="5.76089">
        <ele>1771</ele>
        <time>2016-02-06T10:30:24Z</time>
      </trkpt>
      <trkpt lat="45.31986" lon="5.76085">
        <ele>1770</ele>
        <time>2016-02-06T10:30:28Z</time>
      </trkpt>
      <trkpt lat="45.31983" lon="5.76085">
        <ele>1770</ele>
        <time>2016-02-06T10:30:35Z</time>
      </trkpt>
      <trkpt lat="45.31968" lon="5.76084">
        <ele>1762</ele>
        <time>2016-02-06T10:30:36Z</time>
      </trkpt>
      <trkpt lat="45.31962" lon="5.76081">
        <ele>1758</ele>
        <time>2016-02-06T10:30:42Z</time>
      </trkpt>
      <trkpt lat="45.31944" lon="5.76071">
        <ele>1752</ele>
        <time>2016-02-06T10:30:46Z</time>
      </trkpt>
      <trkpt lat="45.31941" lon="5.76069">
        <ele>1748</ele>
        <time>2016-02-06T10:30:57Z</time>
      </trkpt>
      <trkpt lat="45.3194" lon="5.76053">
        <ele>1746</ele>
        <time>2016-02-06T10:31:00Z</time>
      </trkpt>
      <trkpt lat="45.31941" lon="5.76033">
        <ele>1743</ele>
        <time>2016-02-06T10:31:04Z</time>
      </trkpt>
      <trkpt lat="45.31942" lon="5.7602">
        <ele>1741</ele>
        <time>2016-02-06T10:31:08Z</time>
      </trkpt>
      <trkpt lat="45.31945" lon="5.76014">
        <ele>1740</ele>
        <time>2016-02-06T10:31:11Z</time>
      </trkpt>
      <trkpt lat="45.31949" lon="5.76">
        <ele>1736</ele>
        <time>2016-02-06T10:31:18Z</time>
      </trkpt>
      <trkpt lat="45.31948" lon="5.75987">
        <ele>1731</ele>
        <time>2016-02-06T10:31:23Z</time>
      </trkpt>
      <trkpt lat="45.31951" lon="5.75968">
        <ele>1725</ele>
        <time>2016-02-06T10:31:27Z</time>
      </trkpt>
      <trkpt lat="45.31951" lon="5.75959">
        <ele>1723</ele>
        <time>2016-02-06T10:31:31Z</time>
      </trkpt>
      <trkpt lat="45.31954" lon="5.75935">
        <ele>1722</ele>
        <time>2016-02-06T10:31:38Z</time>
      </trkpt>
      <trkpt lat="45.31954" lon="5.75928">
        <ele>1722</ele>
        <time>2016-02-06T10:31:39Z</time>
      </trkpt>
      <trkpt lat="45.31952" lon="5.75908">
        <ele>1719</ele>
        <time>2016-02-06T10:31:44Z</time>
      </trkpt>
      <trkpt lat="45.31946" lon="5.75897">
        <ele>1718</ele>
        <time>2016-02-06T10:31:48Z</time>
      </trkpt>
      <trkpt lat="45.31943" lon="5.75892">
        <ele>1713</ele>
        <time>2016-02-06T10:33:20Z</time>
      </trkpt>
      <trkpt lat="45.31941" lon="5.75884">
        <ele>1714</ele>
        <time>2016-02-06T10:33:20Z</time>
      </trkpt>
      <trkpt lat="45.31941" lon="5.75876">
        <ele>1713</ele>
        <time>2016-02-06T10:33:26Z</time>
      </trkpt>
      <trkpt lat="45.31921" lon="5.75807">
        <ele>1711</ele>
        <time>2016-02-06T10:33:30Z</time>
      </trkpt>
      <trkpt lat="45.31916" lon="5.75792">
        <ele>1707</ele>
        <time>2016-02-06T10:33:34Z</time>
      </trkpt>
      <trkpt lat="45.31912" lon="5.75781">
        <ele>1708</ele>
        <time>2016-02-06T10:33:37Z</time>
      </trkpt>
      <trkpt lat="45.31906" lon="5.75771">
        <ele>1707</ele>
        <time>2016-02-06T10:33:43Z</time>
      </trkpt>
      <trkpt lat="45.31896" lon="5.75729">
        <ele>1706</ele>
        <time>2016-02-06T10:33:48Z</time>
      </trkpt>
      <trkpt lat="45.31887" lon="5.75703">
        <ele>1706</ele>
        <time>2016-02-06T10:33:53Z</time>
      </trkpt>
      <trkpt lat="45.31885" lon="5.75695">
        <ele>1704</ele>
        <time>2016-02-06T10:34:05Z</time>
      </trkpt>
      <trkpt lat="45.31872" lon="5.7563">
        <ele>1701</ele>
        <time>2016-02-06T10:34:10Z</time>
      </trkpt>
      <trkpt lat="45.31873" lon="5.75617">
        <ele>1699</ele>
        <time>2016-02-06T10:34:15Z</time>
      </trkpt>
      <trkpt lat="45.31866" lon="5.75613">
        <ele>1697</ele>
        <time>2016-02-06T10:34:31Z</time>
      </trkpt>
      <trkpt lat="45.31862" lon="5.75605">
        <ele>1689</ele>
        <time>2016-02-06T10:34:46Z</time>
      </trkpt>
      <trkpt lat="45.31849" lon="5.75596">
        <ele>1689</ele>
        <time>2016-02-06T10:34:50Z</time>
      </trkpt>
      <trkpt lat="45.31845" lon="5.75594">
        <ele>1689</ele>
        <time>2016-02-06T10:34:51Z</time>
      </trkpt>
      <trkpt lat="45.31832" lon="5.75582">
        <ele>1690</ele>
        <time>2016-02-06T10:35:00Z</time>
      </trkpt>
      <trkpt lat="45.31773" lon="5.75594">
        <ele>1687</ele>
        <time>2016-02-06T10:35:06Z</time>
      </trkpt>
      <trkpt lat="45.31753" lon="5.75595">
        <ele>1685</ele>
        <time>2016-02-06T10:35:11Z</time>
      </trkpt>
      <trkpt lat="45.3175" lon="5.75594">
        <ele>1686</ele>
        <time>2016-02-06T10:35:12Z</time>
      </trkpt>
      <trkpt lat="45.31728" lon="5.75559">
        <ele>1682</ele>
        <time>2016-02-06T10:35:22Z</time>
      </trkpt>
      <trkpt lat="45.31709" lon="5.75553">
        <ele>1681</ele>
        <time>2016-02-06T10:35:26Z</time>
      </trkpt>
      <trkpt lat="45.31691" lon="5.75547">
        <ele>1682</ele>
        <time>2016-02-06T10:35:30Z</time>
      </trkpt>
      <trkpt lat="45.31682" lon="5.75536">
        <ele>1682</ele>
        <time>2016-02-06T10:35:32Z</time>
      </trkpt>
      <trkpt lat="45.31641" lon="5.75488">
        <ele>1679</ele>
        <time>2016-02-06T10:35:47Z</time>
      </trkpt>
      <trkpt lat="45.31589" lon="5.75444">
        <ele>1679</ele>
        <time>2016-02-06T10:35:51Z</time>
      </trkpt>
      <trkpt lat="45.31582" lon="5.75441">
        <ele>1678</ele>
        <time>2016-02-06T10:35:52Z</time>
      </trkpt>
      <trkpt lat="45.31563" lon="5.75435">
        <ele>1676</ele>
        <time>2016-02-06T10:36:00Z</time>
      </trkpt>
      <trkpt lat="45.31507" lon="5.75402">
        <ele>1677</ele>
        <time>2016-02-06T10:36:07Z</time>
      </trkpt>
      <trkpt lat="45.31477" lon="5.75383">
        <ele>1678</ele>
        <time>2016-02-06T10:36:11Z</time>
      </trkpt>
      <trkpt lat="45.31472" lon="5.75379">
        <ele>1678</ele>
        <time>2016-02-06T10:36:12Z</time>
      </trkpt>
      <trkpt lat="45.3145" lon="5.75379">
        <ele>1676</ele>
        <time>2016-02-06T10:36:27Z</time>
      </trkpt>
      <trkpt lat="45.3137" lon="5.75372">
        <ele>1673</ele>
        <time>2016-02-06T10:36:31Z</time>
      </trkpt>
      <trkpt lat="45.31351" lon="5.75374">
        <ele>1671</ele>
        <time>2016-02-06T10:36:36Z</time>
      </trkpt>
      <trkpt lat="45.31345" lon="5.75379">
        <ele>1670</ele>
        <time>2016-02-06T10:36:37Z</time>
      </trkpt>
      <trkpt lat="45.31324" lon="5.75393">
        <ele>1668</ele>
        <time>2016-02-06T10:36:46Z</time>
      </trkpt>
      <trkpt lat="45.31291" lon="5.75418">
        <ele>1668</ele>
        <time>2016-02-06T10:36:51Z</time>
      </trkpt>
      <trkpt lat="45.31288" lon="5.75417">
        <ele>1669</ele>
        <time>2016-02-06T10:36:52Z</time>
      </trkpt>
      <trkpt lat="45.31258" lon="5.75427">
        <ele>1667</ele>
        <time>2016-02-06T10:37:00Z</time>
      </trkpt>
      <trkpt lat="45.31243" lon="5.75442">
        <ele>1660</ele>
        <time>2016-02-06T10:37:07Z</time>
      </trkpt>
      <trkpt lat="45.31219" lon="5.75469">
        <ele>1659</ele>
        <time>2016-02-06T10:37:11Z</time>
      </trkpt>
      <trkpt lat="45.31206" lon="5.75479">
        <ele>1658</ele>
        <time>2016-02-06T10:37:15Z</time>
      </trkpt>
      <trkpt lat="45.31193" lon="5.75488">
        <ele>1658</ele>
        <time>2016-02-06T10:37:19Z</time>
      </trkpt>
      <trkpt lat="45.31177" lon="5.75488">
        <ele>1659</ele>
        <time>2016-02-06T10:37:28Z</time>
      </trkpt>
      <trkpt lat="45.31144" lon="5.75484">
        <ele>1666</ele>
        <time>2016-02-06T10:37:33Z</time>
      </trkpt>
      <trkpt lat="45.3113" lon="5.75484">
        <ele>1666</ele>
        <time>2016-02-06T10:37:38Z</time>
      </trkpt>
      <trkpt lat="45.31121" lon="5.75478">
        <ele>1666</ele>
        <time>2016-02-06T10:37:42Z</time>
      </trkpt>
      <trkpt lat="45.31109" lon="5.75471">
        <ele>1665</ele>
        <time>2016-02-06T10:37:47Z</time>
      </trkpt>
      <trkpt lat="45.31104" lon="5.75464">
        <ele>1661</ele>
        <time>2016-02-06T10:37:58Z</time>
      </trkpt>
      <trkpt lat="45.31096" lon="5.75458">
        <ele>1658</ele>
        <time>2016-02-06T10:38:03Z</time>
      </trkpt>
      <trkpt lat="45.31068" lon="5.75439">
        <ele>1657</ele>
        <time>2016-02-06T10:38:07Z</time>
      </trkpt>
      <trkpt lat="45.31035" lon="5.75418">
        <ele>1656</ele>
        <time>2016-02-06T10:38:12Z</time>
      </trkpt>
      <trkpt lat="45.31003" lon="5.75412">
        <ele>1657</ele>
        <time>2016-02-06T10:38:17Z</time>
      </trkpt>
      <trkpt lat="45.30995" lon="5.75411">
        <ele>1656</ele>
        <time>2016-02-06T10:38:25Z</time>
      </trkpt>
      <trkpt lat="45.30994" lon="5.75407">
        <ele>1655</ele>
        <time>2016-02-06T10:38:48Z</time>
      </trkpt>
      <trkpt lat="45.3096" lon="5.75384">
        <ele>1646</ele>
        <time>2016-02-06T10:38:53Z</time>
      </trkpt>
      <trkpt lat="45.30955" lon="5.75378">
        <ele>1644</ele>
        <time>2016-02-06T10:38:54Z</time>
      </trkpt>
      <trkpt lat="45.30946" lon="5.75371">
        <ele>1640</ele>
        <time>2016-02-06T10:39:00Z</time>
      </trkpt>
      <trkpt lat="45.30925" lon="5.75362">
        <ele>1638</ele>
        <time>2016-02-06T10:39:00Z</time>
      </trkpt>
      <trkpt lat="45.30857" lon="5.75312">
        <ele>1636</ele>
        <time>2016-02-06T10:39:09Z</time>
      </trkpt>
      <trkpt lat="45.30814" lon="5.75303">
        <ele>1638</ele>
        <time>2016-02-06T10:39:13Z</time>
      </trkpt>
      <trkpt lat="45.30787" lon="5.75273">
        <ele>1628</ele>
        <time>2016-02-06T10:39:17Z</time>
      </trkpt>
      <trkpt lat="45.30759" lon="5.75235">
        <ele>1625</ele>
        <time>2016-02-06T10:39:22Z</time>
      </trkpt>
      <trkpt lat="45.30755" lon="5.75224">
        <ele>1625</ele>
        <time>2016-02-06T10:39:29Z</time>
      </trkpt>
      <trkpt lat="45.30734" lon="5.75211">
        <ele>1622</ele>
        <time>2016-02-06T10:39:33Z</time>
      </trkpt>
      <trkpt lat="45.30737" lon="5.7521">
        <ele>1615</ele>
        <time>2016-02-06T10:49:05Z</time>
      </trkpt>
      <trkpt lat="45.30748" lon="5.75239">
        <ele>1617</ele>
        <time>2016-02-06T10:49:07Z</time>
      </trkpt>
      <trkpt lat="45.30785" lon="5.7527">
        <ele>1600</ele>
        <time>2016-02-06T10:49:17Z</time>
      </trkpt>
      <trkpt lat="45.30807" lon="5.75347">
        <ele>1593</ele>
        <time>2016-02-06T10:49:21Z</time>
      </trkpt>
      <trkpt lat="45.30811" lon="5.75351">
        <ele>1593</ele>
        <time>2016-02-06T10:49:23Z</time>
      </trkpt>
      <trkpt lat="45.30819" lon="5.75365">
        <ele>1595</ele>
        <time>2016-02-06T10:49:37Z</time>
      </trkpt>
      <trkpt lat="45.30857" lon="5.75432">
        <ele>1597</ele>
        <time>2016-02-06T10:49:41Z</time>
      </trkpt>
      <trkpt lat="45.30863" lon="5.75472">
        <ele>1595</ele>
        <time>2016-02-06T10:49:44Z</time>
      </trkpt>
      <trkpt lat="45.30864" lon="5.75511">
        <ele>1591</ele>
        <time>2016-02-06T10:49:48Z</time>
      </trkpt>
      <trkpt lat="45.30866" lon="5.75519">
        <ele>1590</ele>
        <time>2016-02-06T10:49:58Z</time>
      </trkpt>
      <trkpt lat="45.30866" lon="5.75528">
        <ele>1586</ele>
        <time>2016-02-06T10:51:12Z</time>
      </trkpt>
      <trkpt lat="45.30867" lon="5.75557">
        <ele>1593</ele>
        <time>2016-02-06T10:51:17Z</time>
      </trkpt>
      <trkpt lat="45.30853" lon="5.75553">
        <ele>1592</ele>
        <time>2016-02-06T10:51:22Z</time>
      </trkpt>
      <trkpt lat="45.30836" lon="5.75541">
        <ele>1590</ele>
        <time>2016-02-06T10:51:25Z</time>
      </trkpt>
      <trkpt lat="45.30833" lon="5.75528">
        <ele>1587</ele>
        <time>2016-02-06T10:51:27Z</time>
      </trkpt>
      <trkpt lat="45.30826" lon="5.75525">
        <ele>1584</ele>
        <time>2016-02-06T10:51:38Z</time>
      </trkpt>
      <trkpt lat="45.30833" lon="5.75527">
        <ele>1576</ele>
        <time>2016-02-06T10:51:43Z</time>
      </trkpt>
      <trkpt lat="45.30776" lon="5.75488">
        <ele>1570</ele>
        <time>2016-02-06T10:51:58Z</time>
      </trkpt>
      <trkpt lat="45.30758" lon="5.75456">
        <ele>1570</ele>
        <time>2016-02-06T10:52:02Z</time>
      </trkpt>
      <trkpt lat="45.30749" lon="5.75452">
        <ele>1570</ele>
        <time>2016-02-06T10:52:03Z</time>
      </trkpt>
      <trkpt lat="45.30679" lon="5.75393">
        <ele>1563</ele>
        <time>2016-02-06T10:52:18Z</time>
      </trkpt>
      <trkpt lat="45.30643" lon="5.75359">
        <ele>1560</ele>
        <time>2016-02-06T10:52:22Z</time>
      </trkpt>
      <trkpt lat="45.3064" lon="5.75366">
        <ele>1560</ele>
        <time>2016-02-06T10:52:31Z</time>
      </trkpt>
      <trkpt lat="45.30629" lon="5.75373">
        <ele>1559</ele>
        <time>2016-02-06T10:52:35Z</time>
      </trkpt>
      <trkpt lat="45.30618" lon="5.75372">
        <ele>1553</ele>
        <time>2016-02-06T10:52:39Z</time>
      </trkpt>
      <trkpt lat="45.30599" lon="5.75372">
        <ele>1551</ele>
        <time>2016-02-06T10:52:43Z</time>
      </trkpt>
      <trkpt lat="45.30586" lon="5.7537">
        <ele>1550</ele>
        <time>2016-02-06T10:52:48Z</time>
      </trkpt>
      <trkpt lat="45.30579" lon="5.75369">
        <ele>1550</ele>
        <time>2016-02-06T10:52:53Z</time>
      </trkpt>
      <trkpt lat="45.3057" lon="5.75373">
        <ele>1546</ele>
        <time>2016-02-06T10:52:58Z</time>
      </trkpt>
      <trkpt lat="45.30558" lon="5.75367">
        <ele>1550</ele>
        <time>2016-02-06T10:53:02Z</time>
      </trkpt>
      <trkpt lat="45.3055" lon="5.75355">
        <ele>1546</ele>
        <time>2016-02-06T10:53:07Z</time>
      </trkpt>
      <trkpt lat="45.30548" lon="5.75353">
        <ele>1546</ele>
        <time>2016-02-06T10:53:19Z</time>
      </trkpt>
      <trkpt lat="45.30517" lon="5.75306">
        <ele>1531</ele>
        <time>2016-02-06T10:53:23Z</time>
      </trkpt>
      <trkpt lat="45.30515" lon="5.75306">
        <ele>1531</ele>
        <time>2016-02-06T10:53:24Z</time>
      </trkpt>
      <trkpt lat="45.30484" lon="5.7535">
        <ele>1530</ele>
        <time>2016-02-06T10:53:39Z</time>
      </trkpt>
      <trkpt lat="45.30474" lon="5.75352">
        <ele>1527</ele>
        <time>2016-02-06T10:53:43Z</time>
      </trkpt>
      <trkpt lat="45.30467" lon="5.75357">
        <ele>1528</ele>
        <time>2016-02-06T10:53:47Z</time>
      </trkpt>
      <trkpt lat="45.30469" lon="5.75365">
        <ele>1512</ele>
        <time>2016-02-06T10:55:08Z</time>
      </trkpt>
      <trkpt lat="45.30481" lon="5.75415">
        <ele>1486</ele>
        <time>2016-02-06T10:55:13Z</time>
      </trkpt>
      <trkpt lat="45.30484" lon="5.75447">
        <ele>1482</ele>
        <time>2016-02-06T10:55:18Z</time>
      </trkpt>
      <trkpt lat="45.30481" lon="5.75466">
        <ele>1477</ele>
        <time>2016-02-06T10:55:22Z</time>
      </trkpt>
      <trkpt lat="45.30478" lon="5.75477">
        <ele>1476</ele>
        <time>2016-02-06T10:55:26Z</time>
      </trkpt>
      <trkpt lat="45.30477" lon="5.75489">
        <ele>1476</ele>
        <time>2016-02-06T10:55:31Z</time>
      </trkpt>
      <trkpt lat="45.30469" lon="5.7552">
        <ele>1481</ele>
        <time>2016-02-06T10:56:01Z</time>
      </trkpt>
      <trkpt lat="45.30461" lon="5.75547">
        <ele>1485</ele>
        <time>2016-02-06T10:56:05Z</time>
      </trkpt>
      <trkpt lat="45.30461" lon="5.75558">
        <ele>1486</ele>
        <time>2016-02-06T10:56:26Z</time>
      </trkpt>
      <trkpt lat="45.3046" lon="5.75571">
        <ele>1478</ele>
        <time>2016-02-06T10:56:34Z</time>
      </trkpt>
      <trkpt lat="45.30466" lon="5.75576">
        <ele>1475</ele>
        <time>2016-02-06T10:56:39Z</time>
      </trkpt>
      <trkpt lat="45.30477" lon="5.7559">
        <ele>1467</ele>
        <time>2016-02-06T10:56:43Z</time>
      </trkpt>
      <trkpt lat="45.30487" lon="5.75609">
        <ele>1461</ele>
        <time>2016-02-06T10:56:48Z</time>
      </trkpt>
      <trkpt lat="45.30488" lon="5.75612">
        <ele>1458</ele>
        <time>2016-02-06T10:56:54Z</time>
      </trkpt>
      <trkpt lat="45.30495" lon="5.7563">
        <ele>1451</ele>
        <time>2016-02-06T10:56:59Z</time>
      </trkpt>
      <trkpt lat="45.30508" lon="5.75615">
        <ele>1453</ele>
        <time>2016-02-06T10:57:03Z</time>
      </trkpt>
      <trkpt lat="45.30519" lon="5.75593">
        <ele>1460</ele>
        <time>2016-02-06T10:57:07Z</time>
      </trkpt>
      <trkpt lat="45.30522" lon="5.75588">
        <ele>1461</ele>
        <time>2016-02-06T10:57:08Z</time>
      </trkpt>
      <trkpt lat="45.30529" lon="5.75616">
        <ele>1455</ele>
        <time>2016-02-06T10:57:22Z</time>
      </trkpt>
      <trkpt lat="45.30521" lon="5.75627">
        <ele>1449</ele>
        <time>2016-02-06T10:57:27Z</time>
      </trkpt>
      <trkpt lat="45.30522" lon="5.75643">
        <ele>1446</ele>
        <time>2016-02-06T10:57:31Z</time>
      </trkpt>
      <trkpt lat="45.30526" lon="5.75648">
        <ele>1446</ele>
        <time>2016-02-06T10:57:33Z</time>
      </trkpt>
      <trkpt lat="45.30529" lon="5.75655">
        <ele>1445</ele>
        <time>2016-02-06T10:57:37Z</time>
      </trkpt>
      <trkpt lat="45.30543" lon="5.75672">
        <ele>1439</ele>
        <time>2016-02-06T10:57:41Z</time>
      </trkpt>
      <trkpt lat="45.30548" lon="5.75696">
        <ele>1436</ele>
        <time>2016-02-06T10:57:45Z</time>
      </trkpt>
      <trkpt lat="45.30551" lon="5.75699">
        <ele>1435</ele>
        <time>2016-02-06T10:57:49Z</time>
      </trkpt>
      <trkpt lat="45.30543" lon="5.75714">
        <ele>1433</ele>
        <time>2016-02-06T10:58:00Z</time>
      </trkpt>
      <trkpt lat="45.30533" lon="5.75801">
        <ele>1434</ele>
        <time>2016-02-06T10:58:05Z</time>
      </trkpt>
      <trkpt lat="45.30547" lon="5.75799">
        <ele>1424</ele>
        <time>2016-02-06T10:58:09Z</time>
      </trkpt>
      <trkpt lat="45.30574" lon="5.75916">
        <ele>1395</ele>
        <time>2016-02-06T10:58:45Z</time>
      </trkpt>
      <trkpt lat="45.3058" lon="5.75925">
        <ele>1390</ele>
        <time>2016-02-06T10:58:49Z</time>
      </trkpt>
      <trkpt lat="45.30583" lon="5.75923">
        <ele>1390</ele>
        <time>2016-02-06T10:58:50Z</time>
      </trkpt>
      <trkpt lat="45.30588" lon="5.75931">
        <ele>1387</ele>
        <time>2016-02-06T10:59:03Z</time>
      </trkpt>
      <trkpt lat="45.30589" lon="5.75944">
        <ele>1392</ele>
        <time>2016-02-06T11:00:15Z</time>
      </trkpt>
      <trkpt lat="45.30596" lon="5.75945">
        <ele>1386</ele>
        <time>2016-02-06T11:00:24Z</time>
      </trkpt>
      <trkpt lat="45.30612" lon="5.75947">
        <ele>1363</ele>
        <time>2016-02-06T11:00:28Z</time>
      </trkpt>
      <trkpt lat="45.30616" lon="5.75956">
        <ele>1363</ele>
        <time>2016-02-06T11:00:31Z</time>
      </trkpt>
      <trkpt lat="45.30618" lon="5.75961">
        <ele>1357</ele>
        <time>2016-02-06T11:00:35Z</time>
      </trkpt>
      <trkpt lat="45.30625" lon="5.75967">
        <ele>1350</ele>
        <time>2016-02-06T11:00:44Z</time>
      </trkpt>
      <trkpt lat="45.30629" lon="5.75977">
        <ele>1341</ele>
        <time>2016-02-06T11:00:50Z</time>
      </trkpt>
      <trkpt lat="45.30638" lon="5.75991">
        <ele>1340</ele>
        <time>2016-02-06T11:01:00Z</time>
      </trkpt>
      <trkpt lat="45.30641" lon="5.76021">
        <ele>1336</ele>
        <time>2016-02-06T11:01:05Z</time>
      </trkpt>
      <trkpt lat="45.30648" lon="5.76048">
        <ele>1332</ele>
        <time>2016-02-06T11:01:09Z</time>
      </trkpt>
      <trkpt lat="45.30648" lon="5.76055">
        <ele>1331</ele>
        <time>2016-02-06T11:01:10Z</time>
      </trkpt>
      <trkpt lat="45.30667" lon="5.76089">
        <ele>1324</ele>
        <time>2016-02-06T11:01:25Z</time>
      </trkpt>
      <trkpt lat="45.30688" lon="5.76098">
        <ele>1309</ele>
        <time>2016-02-06T11:01:29Z</time>
      </trkpt>
      <trkpt lat="45.30696" lon="5.76105">
        <ele>1303</ele>
        <time>2016-02-06T11:01:31Z</time>
      </trkpt>
      <trkpt lat="45.30711" lon="5.76113">
        <ele>1299</ele>
        <time>2016-02-06T11:01:35Z</time>
      </trkpt>
      <trkpt lat="45.3073" lon="5.76152">
        <ele>1289</ele>
        <time>2016-02-06T11:01:45Z</time>
      </trkpt>
      <trkpt lat="45.30734" lon="5.76176">
        <ele>1285</ele>
        <time>2016-02-06T11:01:49Z</time>
      </trkpt>
      <trkpt lat="45.30729" lon="5.76181">
        <ele>1284</ele>
        <time>2016-02-06T11:01:50Z</time>
      </trkpt>
      <trkpt lat="45.30726" lon="5.76188">
        <ele>1284</ele>
        <time>2016-02-06T11:02:00Z</time>
      </trkpt>
      <trkpt lat="45.30739" lon="5.76219">
        <ele>1283</ele>
        <time>2016-02-06T11:02:00Z</time>
      </trkpt>
      <trkpt lat="45.3077" lon="5.76225">
        <ele>1275</ele>
        <time>2016-02-06T11:02:07Z</time>
      </trkpt>
      <trkpt lat="45.30774" lon="5.76247">
        <ele>1265</ele>
        <time>2016-02-06T11:02:11Z</time>
      </trkpt>
      <trkpt lat="45.30791" lon="5.76253">
        <ele>1260</ele>
        <time>2016-02-06T11:02:25Z</time>
      </trkpt>
      <trkpt lat="45.30806" lon="5.76296">
        <ele>1254</ele>
        <time>2016-02-06T11:02:29Z</time>
      </trkpt>
      <trkpt lat="45.30806" lon="5.76312">
        <ele>1252</ele>
        <time>2016-02-06T11:02:31Z</time>
      </trkpt>
      <trkpt lat="45.30812" lon="5.76337">
        <ele>1250</ele>
        <time>2016-02-06T11:02:35Z</time>
      </trkpt>
      <trkpt lat="45.30819" lon="5.7635">
        <ele>1251</ele>
        <time>2016-02-06T11:02:36Z</time>
      </trkpt>
      <trkpt lat="45.30834" lon="5.76405">
        <ele>1246</ele>
        <time>2016-02-06T11:02:45Z</time>
      </trkpt>
      <trkpt lat="45.30851" lon="5.7644">
        <ele>1242</ele>
        <time>2016-02-06T11:02:49Z</time>
      </trkpt>
      <trkpt lat="45.30851" lon="5.76454">
        <ele>1242</ele>
        <time>2016-02-06T11:02:51Z</time>
      </trkpt>
      <trkpt lat="45.3084" lon="5.76488">
        <ele>1238</ele>
        <time>2016-02-06T11:03:05Z</time>
      </trkpt>
      <trkpt lat="45.30813" lon="5.76531">
        <ele>1235</ele>
        <time>2016-02-06T11:03:10Z</time>
      </trkpt>
      <trkpt lat="45.3081" lon="5.76528">
        <ele>1234</ele>
        <time>2016-02-06T11:03:11Z</time>
      </trkpt>
      <trkpt lat="45.30808" lon="5.76554">
        <ele>1232</ele>
        <time>2016-02-06T11:03:25Z</time>
      </trkpt>
      <trkpt lat="45.30803" lon="5.76577">
        <ele>1225</ele>
        <time>2016-02-06T11:03:29Z</time>
      </trkpt>
      <trkpt lat="45.30801" lon="5.76585">
        <ele>1223</ele>
        <time>2016-02-06T11:03:31Z</time>
      </trkpt>
      <trkpt lat="45.308" lon="5.76601">
        <ele>1221</ele>
        <time>2016-02-06T11:03:36Z</time>
      </trkpt>
      <trkpt lat="45.30795" lon="5.76618">
        <ele>1219</ele>
        <time>2016-02-06T11:03:45Z</time>
      </trkpt>
      <trkpt lat="45.30778" lon="5.76643">
        <ele>1207</ele>
        <time>2016-02-06T11:03:49Z</time>
      </trkpt>
      <trkpt lat="45.30772" lon="5.76652">
        <ele>1204</ele>
        <time>2016-02-06T11:03:54Z</time>
      </trkpt>
      <trkpt lat="45.30766" lon="5.7666">
        <ele>1202</ele>
        <time>2016-02-06T11:04:00Z</time>
      </trkpt>
      <trkpt lat="45.30757" lon="5.76668">
        <ele>1201</ele>
        <time>2016-02-06T11:04:05Z</time>
      </trkpt>
      <trkpt lat="45.30748" lon="5.76675">
        <ele>1196</ele>
        <time>2016-02-06T11:04:09Z</time>
      </trkpt>
      <trkpt lat="45.30741" lon="5.76681">
        <ele>1196</ele>
        <time>2016-02-06T11:04:17Z</time>
      </trkpt>
      <trkpt lat="45.30733" lon="5.76683">
        <ele>1195</ele>
        <time>2016-02-06T11:04:27Z</time>
      </trkpt>
      <trkpt lat="45.30729" lon="5.76682">
        <ele>1199</ele>
        <time>2016-02-06T11:04:36Z</time>
      </trkpt>
      <trkpt lat="45.30719" lon="5.76687">
        <ele>1200</ele>
        <time>2016-02-06T11:04:45Z</time>
      </trkpt>
      <trkpt lat="45.30714" lon="5.76697">
        <ele>1195</ele>
        <time>2016-02-06T11:05:14Z</time>
      </trkpt>
      <trkpt lat="45.30705" lon="5.76703">
        <ele>1193</ele>
        <time>2016-02-06T11:05:19Z</time>
      </trkpt>
      <trkpt lat="45.30701" lon="5.76716">
        <ele>1190</ele>
        <time>2016-02-06T11:05:24Z</time>
      </trkpt>
      <trkpt lat="45.3069" lon="5.76722">
        <ele>1189</ele>
        <time>2016-02-06T11:05:28Z</time>
      </trkpt>
      <trkpt lat="45.30693" lon="5.76734">
        <ele>1187</ele>
        <time>2016-02-06T11:05:32Z</time>
      </trkpt>
      <trkpt lat="45.30685" lon="5.76735">
        <ele>1187</ele>
        <time>2016-02-06T11:05:37Z</time>
      </trkpt>
      <trkpt lat="45.30683" lon="5.76743">
        <ele>1180</ele>
        <time>2016-02-06T11:07:28Z</time>
      </trkpt>
      <trkpt lat="45.30685" lon="5.76758">
        <ele>1181</ele>
        <time>2016-02-06T11:07:33Z</time>
      </trkpt>
      <trkpt lat="45.30688" lon="5.76767">
        <ele>1176</ele>
        <time>2016-02-06T11:07:38Z</time>
      </trkpt>
      <trkpt lat="45.30693" lon="5.76777">
        <ele>1184</ele>
        <time>2016-02-06T11:07:47Z</time>
      </trkpt>
      <trkpt lat="45.30693" lon="5.76786">
        <ele>1186</ele>
        <time>2016-02-06T11:09:37Z</time>
      </trkpt>
      <trkpt lat="45.307" lon="5.76805">
        <ele>1165</ele>
        <time>2016-02-06T11:09:47Z</time>
      </trkpt>
      <trkpt lat="45.307" lon="5.76825">
        <ele>1158</ele>
        <time>2016-02-06T11:09:51Z</time>
      </trkpt>
      <trkpt lat="45.30699" lon="5.7683">
        <ele>1159</ele>
        <time>2016-02-06T11:09:54Z</time>
      </trkpt>
      <trkpt lat="45.307" lon="5.76843">
        <ele>1155</ele>
        <time>2016-02-06T11:10:00Z</time>
      </trkpt>
      <trkpt lat="45.30714" lon="5.76875">
        <ele>1149</ele>
        <time>2016-02-06T11:10:07Z</time>
      </trkpt>
      <trkpt lat="45.3071" lon="5.76909">
        <ele>1155</ele>
        <time>2016-02-06T11:10:12Z</time>
      </trkpt>
      <trkpt lat="45.30707" lon="5.76936">
        <ele>1155</ele>
        <time>2016-02-06T11:10:15Z</time>
      </trkpt>
      <trkpt lat="45.30713" lon="5.76942">
        <ele>1162</ele>
        <time>2016-02-06T11:10:21Z</time>
      </trkpt>
      <trkpt lat="45.30722" lon="5.76956">
        <ele>1164</ele>
        <time>2016-02-06T11:10:24Z</time>
      </trkpt>
      <trkpt lat="45.30727" lon="5.7699">
        <ele>1163</ele>
        <time>2016-02-06T11:10:29Z</time>
      </trkpt>
      <trkpt lat="45.30732" lon="5.77001">
        <ele>1165</ele>
        <time>2016-02-06T11:10:33Z</time>
      </trkpt>
      <trkpt lat="45.30728" lon="5.77012">
        <ele>1161</ele>
        <time>2016-02-06T11:12:31Z</time>
      </trkpt>
      <trkpt lat="45.30727" lon="5.77025">
        <ele>1159</ele>
        <time>2016-02-06T11:12:34Z</time>
      </trkpt>
      <trkpt lat="45.30722" lon="5.77048">
        <ele>1160</ele>
        <time>2016-02-06T11:12:48Z</time>
      </trkpt>
      <trkpt lat="45.30745" lon="5.7714">
        <ele>1163</ele>
        <time>2016-02-06T11:12:53Z</time>
      </trkpt>
      <trkpt lat="45.30747" lon="5.77152">
        <ele>1162</ele>
        <time>2016-02-06T11:14:32Z</time>
      </trkpt>
      <trkpt lat="45.3075" lon="5.77164">
        <ele>1160</ele>
        <time>2016-02-06T11:14:37Z</time>
      </trkpt>
      <trkpt lat="45.30754" lon="5.77181">
        <ele>1153</ele>
        <time>2016-02-06T11:14:41Z</time>
      </trkpt>
      <trkpt lat="45.30752" lon="5.772">
        <ele>1151</ele>
        <time>2016-02-06T11:14:46Z</time>
      </trkpt>
      <trkpt lat="45.30758" lon="5.77205">
        <ele>1151</ele>
        <time>2016-02-06T11:15:12Z</time>
      </trkpt>
      <trkpt lat="45.30755" lon="5.77219">
        <ele>1155</ele>
        <time>2016-02-06T11:15:16Z</time>
      </trkpt>
      <trkpt lat="45.30757" lon="5.77229">
        <ele>1159</ele>
        <time>2016-02-06T11:15:22Z</time>
      </trkpt>
      <trkpt lat="45.30756" lon="5.77241">
        <ele>1159</ele>
        <time>2016-02-06T11:16:01Z</time>
      </trkpt>
      <trkpt lat="45.30749" lon="5.77241">
        <ele>1162</ele>
        <time>2016-02-06T11:16:18Z</time>
      </trkpt>
      <trkpt lat="45.30745" lon="5.77242">
        <ele>1161</ele>
        <time>2016-02-06T11:16:21Z</time>
      </trkpt>
      <trkpt lat="45.30723" lon="5.77242">
        <ele>1162</ele>
        <time>2016-02-06T11:16:30Z</time>
      </trkpt>
      <trkpt lat="45.30711" lon="5.77237">
        <ele>1161</ele>
        <time>2016-02-06T11:16:35Z</time>
      </trkpt>
      <trkpt lat="45.30704" lon="5.77231">
        <ele>1160</ele>
        <time>2016-02-06T11:16:50Z</time>
      </trkpt>
      <trkpt lat="45.30681" lon="5.77217">
        <ele>1164</ele>
        <time>2016-02-06T11:16:55Z</time>
      </trkpt>
      <trkpt lat="45.30678" lon="5.77221">
        <ele>1166</ele>
        <time>2016-02-06T11:17:00Z</time>
      </trkpt>
      <trkpt lat="45.30666" lon="5.77228">
        <ele>1167</ele>
        <time>2016-02-06T11:17:01Z</time>
      </trkpt>
      <trkpt lat="45.30665" lon="5.77208">
        <ele>1166</ele>
        <time>2016-02-06T11:17:08Z</time>
      </trkpt>
      <trkpt lat="45.30644" lon="5.77181">
        <ele>1168</ele>
        <time>2016-02-06T11:17:13Z</time>
      </trkpt>
      <trkpt lat="45.30636" lon="5.77187">
        <ele>1170</ele>
        <time>2016-02-06T11:17:16Z</time>
      </trkpt>
      <trkpt lat="45.30644" lon="5.77171">
        <ele>1169</ele>
        <time>2016-02-06T11:17:21Z</time>
      </trkpt>
      <trkpt lat="45.30641" lon="5.77165">
        <ele>1171</ele>
        <time>2016-02-06T11:17:31Z</time>
      </trkpt>
      <trkpt lat="45.30625" lon="5.77149">
        <ele>1172</ele>
        <time>2016-02-06T11:17:35Z</time>
      </trkpt>
      <trkpt lat="45.30618" lon="5.77142">
        <ele>1172</ele>
        <time>2016-02-06T11:17:40Z</time>
      </trkpt>
      <trkpt lat="45.30607" lon="5.77134">
        <ele>1175</ele>
        <time>2016-02-06T11:17:45Z</time>
      </trkpt>
      <trkpt lat="45.30601" lon="5.77129">
        <ele>1174</ele>
        <time>2016-02-06T11:17:48Z</time>
      </trkpt>
      <trkpt lat="45.3059" lon="5.77125">
        <ele>1174</ele>
        <time>2016-02-06T11:17:53Z</time>
      </trkpt>
      <trkpt lat="45.30584" lon="5.77104">
        <ele>1178</ele>
        <time>2016-02-06T11:17:57Z</time>
      </trkpt>
      <trkpt lat="45.30584" lon="5.77102">
        <ele>1179</ele>
        <time>2016-02-06T11:18:11Z</time>
      </trkpt>
      <trkpt lat="45.30591" lon="5.77071">
        <ele>1186</ele>
        <time>2016-02-06T11:18:16Z</time>
      </trkpt>
      <trkpt lat="45.30591" lon="5.77063">
        <ele>1185</ele>
        <time>2016-02-06T11:18:17Z</time>
      </trkpt>
      <trkpt lat="45.30585" lon="5.77031">
        <ele>1180</ele>
        <time>2016-02-06T11:18:31Z</time>
      </trkpt>
      <trkpt lat="45.30576" lon="5.77005">
        <ele>1185</ele>
        <time>2016-02-06T11:18:35Z</time>
      </trkpt>
      <trkpt lat="45.30583" lon="5.77">
        <ele>1189</ele>
        <time>2016-02-06T11:18:40Z</time>
      </trkpt>
      <trkpt lat="45.30579" lon="5.7698">
        <ele>1189</ele>
        <time>2016-02-06T11:18:45Z</time>
      </trkpt>
      <trkpt lat="45.30575" lon="5.76971">
        <ele>1189</ele>
        <time>2016-02-06T11:18:47Z</time>
      </trkpt>
      <trkpt lat="45.30566" lon="5.76967">
        <ele>1195</ele>
        <time>2016-02-06T11:18:56Z</time>
      </trkpt>
      <trkpt lat="45.30553" lon="5.7696">
        <ele>1196</ele>
        <time>2016-02-06T11:19:01Z</time>
      </trkpt>
      <trkpt lat="45.30541" lon="5.76952">
        <ele>1195</ele>
        <time>2016-02-06T11:19:02Z</time>
      </trkpt>
      <trkpt lat="45.30544" lon="5.76941">
        <ele>1200</ele>
        <time>2016-02-06T11:19:09Z</time>
      </trkpt>
      <trkpt lat="45.30528" lon="5.76924">
        <ele>1200</ele>
        <time>2016-02-06T11:19:14Z</time>
      </trkpt>
      <trkpt lat="45.30528" lon="5.7692">
        <ele>1203</ele>
        <time>2016-02-06T11:19:18Z</time>
      </trkpt>
      <trkpt lat="45.30522" lon="5.7689">
        <ele>1202</ele>
        <time>2016-02-06T11:19:32Z</time>
      </trkpt>
      <trkpt lat="45.30502" lon="5.76876">
        <ele>1200</ele>
        <time>2016-02-06T11:19:37Z</time>
      </trkpt>
      <trkpt lat="45.30499" lon="5.76881">
        <ele>1200</ele>
        <time>2016-02-06T11:19:38Z</time>
      </trkpt>
      <trkpt lat="45.30495" lon="5.76857">
        <ele>1199</ele>
        <time>2016-02-06T11:19:52Z</time>
      </trkpt>
      <trkpt lat="45.3049" lon="5.76853">
        <ele>1204</ele>
        <time>2016-02-06T11:19:58Z</time>
      </trkpt>
      <trkpt lat="45.30484" lon="5.7684">
        <ele>1207</ele>
        <time>2016-02-06T11:20:03Z</time>
      </trkpt>
      <trkpt lat="45.3048" lon="5.76841">
        <ele>1208</ele>
        <time>2016-02-06T11:20:12Z</time>
      </trkpt>
      <trkpt lat="45.30453" lon="5.76817">
        <ele>1213</ele>
        <time>2016-02-06T11:20:16Z</time>
      </trkpt>
      <trkpt lat="45.30453" lon="5.76809">
        <ele>1211</ele>
        <time>2016-02-06T11:20:18Z</time>
      </trkpt>
      <trkpt lat="45.30441" lon="5.7681">
        <ele>1211</ele>
        <time>2016-02-06T11:20:25Z</time>
      </trkpt>
      <trkpt lat="45.30429" lon="5.76806">
        <ele>1208</ele>
        <time>2016-02-06T11:20:29Z</time>
      </trkpt>
      <trkpt lat="45.30423" lon="5.76804">
        <ele>1210</ele>
        <time>2016-02-06T11:20:35Z</time>
      </trkpt>
      <trkpt lat="45.30413" lon="5.76805">
        <ele>1211</ele>
        <time>2016-02-06T11:20:38Z</time>
      </trkpt>
      <trkpt lat="45.3039" lon="5.76807">
        <ele>1209</ele>
        <time>2016-02-06T11:20:52Z</time>
      </trkpt>
      <trkpt lat="45.30374" lon="5.76809">
        <ele>1208</ele>
        <time>2016-02-06T11:20:56Z</time>
      </trkpt>
      <trkpt lat="45.30374" lon="5.76809">
        <ele>1207</ele>
        <time>2016-02-06T11:20:58Z</time>
      </trkpt>
      <trkpt lat="45.30321" lon="5.76815">
        <ele>1205</ele>
        <time>2016-02-06T11:21:14Z</time>
      </trkpt>
      <trkpt lat="45.30303" lon="5.76819">
        <ele>1205</ele>
        <time>2016-02-06T11:21:19Z</time>
      </trkpt>
      <trkpt lat="45.30292" lon="5.76821">
        <ele>1207</ele>
        <time>2016-02-06T11:21:23Z</time>
      </trkpt>
      <trkpt lat="45.30266" lon="5.76829">
        <ele>1207</ele>
        <time>2016-02-06T11:21:27Z</time>
      </trkpt>
      <trkpt lat="45.30254" lon="5.7684">
        <ele>1209</ele>
        <time>2016-02-06T11:21:31Z</time>
      </trkpt>
      <trkpt lat="45.30242" lon="5.76849">
        <ele>1206</ele>
        <time>2016-02-06T11:21:36Z</time>
      </trkpt>
      <trkpt lat="45.30237" lon="5.76864">
        <ele>1207</ele>
        <time>2016-02-06T11:21:40Z</time>
      </trkpt>
      <trkpt lat="45.30222" lon="5.76904">
        <ele>1209</ele>
        <time>2016-02-06T11:21:55Z</time>
      </trkpt>
      <trkpt lat="45.30203" lon="5.76913">
        <ele>1208</ele>
        <time>2016-02-06T11:21:59Z</time>
      </trkpt>
      <trkpt lat="45.30201" lon="5.76931">
        <ele>1211</ele>
        <time>2016-02-06T11:22:03Z</time>
      </trkpt>
      <trkpt lat="45.30197" lon="5.7694">
        <ele>1214</ele>
        <time>2016-02-06T11:22:07Z</time>
      </trkpt>
      <trkpt lat="45.30195" lon="5.76946">
        <ele>1215</ele>
        <time>2016-02-06T11:22:12Z</time>
      </trkpt>
      <trkpt lat="45.30194" lon="5.76976">
        <ele>1212</ele>
        <time>2016-02-06T11:22:16Z</time>
      </trkpt>
      <trkpt lat="45.30196" lon="5.76989">
        <ele>1213</ele>
        <time>2016-02-06T11:22:20Z</time>
      </trkpt>
      <trkpt lat="45.30198" lon="5.7701">
        <ele>1216</ele>
        <time>2016-02-06T11:22:34Z</time>
      </trkpt>
      <trkpt lat="45.30207" lon="5.77039">
        <ele>1218</ele>
        <time>2016-02-06T11:22:39Z</time>
      </trkpt>
      <trkpt lat="45.30206" lon="5.77041">
        <ele>1219</ele>
        <time>2016-02-06T11:22:40Z</time>
      </trkpt>
      <trkpt lat="45.3021" lon="5.7706">
        <ele>1216</ele>
        <time>2016-02-06T11:22:55Z</time>
      </trkpt>
      <trkpt lat="45.30196" lon="5.77087">
        <ele>1219</ele>
        <time>2016-02-06T11:22:59Z</time>
      </trkpt>
      <trkpt lat="45.30188" lon="5.77094">
        <ele>1220</ele>
        <time>2016-02-06T11:23:05Z</time>
      </trkpt>
      <trkpt lat="45.30182" lon="5.77098">
        <ele>1221</ele>
        <time>2016-02-06T11:23:15Z</time>
      </trkpt>
      <trkpt lat="45.30184" lon="5.77092">
        <ele>1228</ele>
        <time>2016-02-06T11:23:21Z</time>
      </trkpt>
      <trkpt lat="45.30144" lon="5.7709">
        <ele>1234</ele>
        <time>2016-02-06T11:23:36Z</time>
      </trkpt>
      <trkpt lat="45.30131" lon="5.77073">
        <ele>1236</ele>
        <time>2016-02-06T11:23:40Z</time>
      </trkpt>
      <trkpt lat="45.30127" lon="5.7707">
        <ele>1234</ele>
        <time>2016-02-06T11:23:42Z</time>
      </trkpt>
      <trkpt lat="45.30111" lon="5.77055">
        <ele>1240</ele>
        <time>2016-02-06T11:23:57Z</time>
      </trkpt>
      <trkpt lat="45.30096" lon="5.77051">
        <ele>1243</ele>
        <time>2016-02-06T11:24:01Z</time>
      </trkpt>
      <trkpt lat="45.3009" lon="5.7705">
        <ele>1240</ele>
        <time>2016-02-06T11:24:06Z</time>
      </trkpt>
      <trkpt lat="45.30082" lon="5.7703">
        <ele>1245</ele>
        <time>2016-02-06T11:24:16Z</time>
      </trkpt>
      <trkpt lat="45.30058" lon="5.77045">
        <ele>1244</ele>
        <time>2016-02-06T11:24:20Z</time>
      </trkpt>
      <trkpt lat="45.30053" lon="5.77039">
        <ele>1243</ele>
        <time>2016-02-06T11:24:37Z</time>
      </trkpt>
      <trkpt lat="45.30032" lon="5.77037">
        <ele>1254</ele>
        <time>2016-02-06T11:24:41Z</time>
      </trkpt>
      <trkpt lat="45.30015" lon="5.7703">
        <ele>1254</ele>
        <time>2016-02-06T11:24:46Z</time>
      </trkpt>
      <trkpt lat="45.30008" lon="5.77023">
        <ele>1255</ele>
        <time>2016-02-06T11:24:49Z</time>
      </trkpt>
      <trkpt lat="45.30004" lon="5.77021">
        <ele>1255</ele>
        <time>2016-02-06T11:24:56Z</time>
      </trkpt>
      <trkpt lat="45.29987" lon="5.77022">
        <ele>1255</ele>
        <time>2016-02-06T11:25:01Z</time>
      </trkpt>
      <trkpt lat="45.29983" lon="5.77017">
        <ele>1258</ele>
        <time>2016-02-06T11:25:06Z</time>
      </trkpt>
      <trkpt lat="45.29971" lon="5.77017">
        <ele>1260</ele>
        <time>2016-02-06T11:25:09Z</time>
      </trkpt>
      <trkpt lat="45.29964" lon="5.76994">
        <ele>1263</ele>
        <time>2016-02-06T11:25:14Z</time>
      </trkpt>
      <trkpt lat="45.29947" lon="5.77007">
        <ele>1265</ele>
        <time>2016-02-06T11:25:19Z</time>
      </trkpt>
      <trkpt lat="45.29944" lon="5.77012">
        <ele>1265</ele>
        <time>2016-02-06T11:25:22Z</time>
      </trkpt>
      <trkpt lat="45.29929" lon="5.77">
        <ele>1268</ele>
        <time>2016-02-06T11:25:36Z</time>
      </trkpt>
      <trkpt lat="45.29921" lon="5.76979">
        <ele>1270</ele>
        <time>2016-02-06T11:25:40Z</time>
      </trkpt>
      <trkpt lat="45.29913" lon="5.76977">
        <ele>1269</ele>
        <time>2016-02-06T11:25:52Z</time>
      </trkpt>
      <trkpt lat="45.29909" lon="5.76975">
        <ele>1269</ele>
        <time>2016-02-06T11:25:52Z</time>
      </trkpt>
      <trkpt lat="45.299" lon="5.76964">
        <ele>1269</ele>
        <time>2016-02-06T11:25:58Z</time>
      </trkpt>
      <trkpt lat="45.29869" lon="5.76978">
        <ele>1272</ele>
        <time>2016-02-06T11:26:02Z</time>
      </trkpt>
      <trkpt lat="45.29866" lon="5.76977">
        <ele>1271</ele>
        <time>2016-02-06T11:26:05Z</time>
      </trkpt>
      <trkpt lat="45.2986" lon="5.76975">
        <ele>1273</ele>
        <time>2016-02-06T11:26:17Z</time>
      </trkpt>
      <trkpt lat="45.2984" lon="5.76977">
        <ele>1276</ele>
        <time>2016-02-06T11:26:22Z</time>
      </trkpt>
      <trkpt lat="45.29839" lon="5.76977">
        <ele>1277</ele>
        <time>2016-02-06T11:26:23Z</time>
      </trkpt>
      <trkpt lat="45.29819" lon="5.7697">
        <ele>1280</ele>
        <time>2016-02-06T11:26:37Z</time>
      </trkpt>
      <trkpt lat="45.29812" lon="5.76978">
        <ele>1282</ele>
        <time>2016-02-06T11:26:41Z</time>
      </trkpt>
      <trkpt lat="45.29806" lon="5.76984">
        <ele>1284</ele>
        <time>2016-02-06T11:26:43Z</time>
      </trkpt>
      <trkpt lat="45.29772" lon="5.76974">
        <ele>1282</ele>
        <time>2016-02-06T11:26:59Z</time>
      </trkpt>
      <trkpt lat="45.29759" lon="5.76977">
        <ele>1288</ele>
        <time>2016-02-06T11:27:04Z</time>
      </trkpt>
      <trkpt lat="45.29741" lon="5.76976">
        <ele>1292</ele>
        <time>2016-02-06T11:27:09Z</time>
      </trkpt>
      <trkpt lat="45.29734" lon="5.76973">
        <ele>1294</ele>
        <time>2016-02-06T11:27:16Z</time>
      </trkpt>
      <trkpt lat="45.29725" lon="5.76974">
        <ele>1297</ele>
        <time>2016-02-06T11:27:21Z</time>
      </trkpt>
      <trkpt lat="45.29718" lon="5.76965">
        <ele>1296</ele>
        <time>2016-02-06T11:27:25Z</time>
      </trkpt>
      <trkpt lat="45.29709" lon="5.76961">
        <ele>1294</ele>
        <time>2016-02-06T11:27:30Z</time>
      </trkpt>
      <trkpt lat="45.29695" lon="5.76963">
        <ele>1293</ele>
        <time>2016-02-06T11:27:35Z</time>
      </trkpt>
      <trkpt lat="45.29692" lon="5.76965">
        <ele>1296</ele>
        <time>2016-02-06T11:27:42Z</time>
      </trkpt>
      <trkpt lat="45.29687" lon="5.76959">
        <ele>1298</ele>
        <time>2016-02-06T11:27:49Z</time>
      </trkpt>
      <trkpt lat="45.29675" lon="5.76948">
        <ele>1299</ele>
        <time>2016-02-06T11:27:54Z</time>
      </trkpt>
      <trkpt lat="45.29656" lon="5.76931">
        <ele>1296</ele>
        <time>2016-02-06T11:27:59Z</time>
      </trkpt>
      <trkpt lat="45.2965" lon="5.76914">
        <ele>1295</ele>
        <time>2016-02-06T11:28:04Z</time>
      </trkpt>
      <trkpt lat="45.29641" lon="5.76912">
        <ele>1297</ele>
        <time>2016-02-06T11:28:07Z</time>
      </trkpt>
      <trkpt lat="45.29632" lon="5.7691">
        <ele>1291</ele>
        <time>2016-02-06T11:28:12Z</time>
      </trkpt>
      <trkpt lat="45.29621" lon="5.769">
        <ele>1294</ele>
        <time>2016-02-06T11:28:17Z</time>
      </trkpt>
      <trkpt lat="45.29614" lon="5.76888">
        <ele>1295</ele>
        <time>2016-02-06T11:28:21Z</time>
      </trkpt>
      <trkpt lat="45.29612" lon="5.76884">
        <ele>1294</ele>
        <time>2016-02-06T11:28:23Z</time>
      </trkpt>
      <trkpt lat="45.29603" lon="5.76862">
        <ele>1296</ele>
        <time>2016-02-06T11:28:38Z</time>
      </trkpt>
      <trkpt lat="45.29581" lon="5.76845">
        <ele>1297</ele>
        <time>2016-02-06T11:28:42Z</time>
      </trkpt>
      <trkpt lat="45.29578" lon="5.76843">
        <ele>1297</ele>
        <time>2016-02-06T11:28:43Z</time>
      </trkpt>
      <trkpt lat="45.29563" lon="5.76846">
        <ele>1302</ele>
        <time>2016-02-06T11:28:48Z</time>
      </trkpt>
      <trkpt lat="45.29545" lon="5.76839">
        <ele>1300</ele>
        <time>2016-02-06T11:28:53Z</time>
      </trkpt>
      <trkpt lat="45.29541" lon="5.76829">
        <ele>1302</ele>
        <time>2016-02-06T11:29:00Z</time>
      </trkpt>
      <trkpt lat="45.29549" lon="5.7683">
        <ele>1300</ele>
        <time>2016-02-06T11:29:05Z</time>
      </trkpt>
      <trkpt lat="45.29548" lon="5.76842">
        <ele>1298</ele>
        <time>2016-02-06T11:29:17Z</time>
      </trkpt>
      <trkpt lat="45.29551" lon="5.7683">
        <ele>1292</ele>
        <time>2016-02-06T11:31:14Z</time>
      </trkpt>
      <trkpt lat="45.29544" lon="5.76825">
        <ele>1295</ele>
        <time>2016-02-06T11:31:18Z</time>
      </trkpt>
      <trkpt lat="45.29522" lon="5.76825">
        <ele>1294</ele>
        <time>2016-02-06T11:31:22Z</time>
      </trkpt>
      <trkpt lat="45.29515" lon="5.76817">
        <ele>1292</ele>
        <time>2016-02-06T11:31:26Z</time>
      </trkpt>
      <trkpt lat="45.29501" lon="5.76823">
        <ele>1295</ele>
        <time>2016-02-06T11:31:29Z</time>
      </trkpt>
      <trkpt lat="45.29494" lon="5.76822">
        <ele>1295</ele>
        <time>2016-02-06T11:31:37Z</time>
      </trkpt>
      <trkpt lat="45.29465" lon="5.76832">
        <ele>1297</ele>
        <time>2016-02-06T11:31:42Z</time>
      </trkpt>
      <trkpt lat="45.29456" lon="5.76831">
        <ele>1298</ele>
        <time>2016-02-06T11:31:46Z</time>
      </trkpt>
      <trkpt lat="45.2945" lon="5.76828">
        <ele>1297</ele>
        <time>2016-02-06T11:31:50Z</time>
      </trkpt>
      <trkpt lat="45.29441" lon="5.76816">
        <ele>1297</ele>
        <time>2016-02-06T11:31:54Z</time>
      </trkpt>
      <trkpt lat="45.29441" lon="5.76804">
        <ele>1299</ele>
        <time>2016-02-06T11:31:56Z</time>
      </trkpt>
      <trkpt lat="45.29434" lon="5.76805">
        <ele>1301</ele>
        <time>2016-02-06T11:32:00Z</time>
      </trkpt>
      <trkpt lat="45.2942" lon="5.76799">
        <ele>1304</ele>
        <time>2016-02-06T11:32:04Z</time>
      </trkpt>
      <trkpt lat="45.2941" lon="5.76797">
        <ele>1302</ele>
        <time>2016-02-06T11:32:08Z</time>
      </trkpt>
      <trkpt lat="45.2941" lon="5.76791">
        <ele>1306</ele>
        <time>2016-02-06T11:32:18Z</time>
      </trkpt>
      <trkpt lat="45.29391" lon="5.76785">
        <ele>1309</ele>
        <time>2016-02-06T11:32:22Z</time>
      </trkpt>
      <trkpt lat="45.29381" lon="5.76779">
        <ele>1309</ele>
        <time>2016-02-06T11:32:26Z</time>
      </trkpt>
      <trkpt lat="45.29375" lon="5.76772">
        <ele>1309</ele>
        <time>2016-02-06T11:32:29Z</time>
      </trkpt>
      <trkpt lat="45.29365" lon="5.76774">
        <ele>1308</ele>
        <time>2016-02-06T11:32:33Z</time>
      </trkpt>
      <trkpt lat="45.29343" lon="5.76784">
        <ele>1312</ele>
        <time>2016-02-06T11:32:38Z</time>
      </trkpt>
      <trkpt lat="45.29327" lon="5.76785">
        <ele>1314</ele>
        <time>2016-02-06T11:32:42Z</time>
      </trkpt>
      <trkpt lat="45.29313" lon="5.76783">
        <ele>1314</ele>
        <time>2016-02-06T11:32:47Z</time>
      </trkpt>
      <trkpt lat="45.29309" lon="5.76783">
        <ele>1313</ele>
        <time>2016-02-06T11:32:50Z</time>
      </trkpt>
      <trkpt lat="45.29295" lon="5.76767">
        <ele>1311</ele>
        <time>2016-02-06T11:33:03Z</time>
      </trkpt>
      <trkpt lat="45.29279" lon="5.76757">
        <ele>1316</ele>
        <time>2016-02-06T11:33:07Z</time>
      </trkpt>
      <trkpt lat="45.29273" lon="5.76746">
        <ele>1316</ele>
        <time>2016-02-06T11:33:11Z</time>
      </trkpt>
      <trkpt lat="45.29275" lon="5.76734">
        <ele>1316</ele>
        <time>2016-02-06T11:33:17Z</time>
      </trkpt>
      <trkpt lat="45.29286" lon="5.76725">
        <ele>1317</ele>
        <time>2016-02-06T11:33:21Z</time>
      </trkpt>
      <trkpt lat="45.29294" lon="5.76727">
        <ele>1318</ele>
        <time>2016-02-06T11:33:27Z</time>
      </trkpt>
      <trkpt lat="45.29301" lon="5.76734">
        <ele>1318</ele>
        <time>2016-02-06T11:33:33Z</time>
      </trkpt>
      <trkpt lat="45.29316" lon="5.76719">
        <ele>1320</ele>
        <time>2016-02-06T11:33:44Z</time>
      </trkpt>
      <trkpt lat="45.29338" lon="5.76692">
        <ele>1322</ele>
        <time>2016-02-06T11:33:49Z</time>
      </trkpt>
      <trkpt lat="45.29346" lon="5.76693">
        <ele>1323</ele>
        <time>2016-02-06T11:33:50Z</time>
      </trkpt>
      <trkpt lat="45.29342" lon="5.76709">
        <ele>1327</ele>
        <time>2016-02-06T11:33:57Z</time>
      </trkpt>
      <trkpt lat="45.29348" lon="5.7671">
        <ele>1328</ele>
        <time>2016-02-06T11:34:00Z</time>
      </trkpt>
      <trkpt lat="45.29363" lon="5.76698">
        <ele>1329</ele>
        <time>2016-02-06T11:34:05Z</time>
      </trkpt>
      <trkpt lat="45.29378" lon="5.76674">
        <ele>1330</ele>
        <time>2016-02-06T11:34:09Z</time>
      </trkpt>
      <trkpt lat="45.29383" lon="5.7667">
        <ele>1330</ele>
        <time>2016-02-06T11:34:10Z</time>
      </trkpt>
      <trkpt lat="45.29389" lon="5.76664">
        <ele>1332</ele>
        <time>2016-02-06T11:34:15Z</time>
      </trkpt>
      <trkpt lat="45.29396" lon="5.7668">
        <ele>1335</ele>
        <time>2016-02-06T11:34:25Z</time>
      </trkpt>
      <trkpt lat="45.29414" lon="5.76658">
        <ele>1338</ele>
        <time>2016-02-06T11:34:29Z</time>
      </trkpt>
      <trkpt lat="45.29422" lon="5.76654">
        <ele>1341</ele>
        <time>2016-02-06T11:34:44Z</time>
      </trkpt>
      <trkpt lat="45.29456" lon="5.76602">
        <ele>1341</ele>
        <time>2016-02-06T11:34:49Z</time>
      </trkpt>
      <trkpt lat="45.29461" lon="5.76592">
        <ele>1342</ele>
        <time>2016-02-06T11:34:51Z</time>
      </trkpt>
      <trkpt lat="45.29456" lon="5.76602">
        <ele>1341</ele>
        <time>2016-02-06T11:35:00Z</time>
      </trkpt>
      <trkpt lat="45.29459" lon="5.7659">
        <ele>1342</ele>
        <time>2016-02-06T11:35:07Z</time>
      </trkpt>
      <trkpt lat="45.29461" lon="5.76572">
        <ele>1342</ele>
        <time>2016-02-06T11:35:12Z</time>
      </trkpt>
      <trkpt lat="45.29462" lon="5.76557">
        <ele>1345</ele>
        <time>2016-02-06T11:35:16Z</time>
      </trkpt>
      <trkpt lat="45.29462" lon="5.76542">
        <ele>1344</ele>
        <time>2016-02-06T11:35:20Z</time>
      </trkpt>
      <trkpt lat="45.29459" lon="5.76521">
        <ele>1344</ele>
        <time>2016-02-06T11:35:25Z</time>
      </trkpt>
      <trkpt lat="45.29461" lon="5.76509">
        <ele>1348</ele>
        <time>2016-02-06T11:35:29Z</time>
      </trkpt>
      <trkpt lat="45.29459" lon="5.76503">
        <ele>1351</ele>
        <time>2016-02-06T11:35:33Z</time>
      </trkpt>
      <trkpt lat="45.29462" lon="5.76494">
        <ele>1346</ele>
        <time>2016-02-06T11:35:38Z</time>
      </trkpt>
      <trkpt lat="45.29465" lon="5.76483">
        <ele>1344</ele>
        <time>2016-02-06T11:35:45Z</time>
      </trkpt>
      <trkpt lat="45.29469" lon="5.76471">
        <ele>1345</ele>
        <time>2016-02-06T11:35:47Z</time>
      </trkpt>
      <trkpt lat="45.29467" lon="5.76468">
        <ele>1344</ele>
        <time>2016-02-06T11:36:00Z</time>
      </trkpt>
      <trkpt lat="45.29465" lon="5.76457">
        <ele>1336</ele>
        <time>2016-02-06T11:36:12Z</time>
      </trkpt>
      <trkpt lat="45.29465" lon="5.76452">
        <ele>1335</ele>
        <time>2016-02-06T11:36:20Z</time>
      </trkpt>
      <trkpt lat="45.29459" lon="5.76436">
        <ele>1336</ele>
        <time>2016-02-06T11:36:26Z</time>
      </trkpt>
      <trkpt lat="45.29453" lon="5.76418">
        <ele>1335</ele>
        <time>2016-02-06T11:36:31Z</time>
      </trkpt>
      <trkpt lat="45.29444" lon="5.76399">
        <ele>1336</ele>
        <time>2016-02-06T11:36:35Z</time>
      </trkpt>
      <trkpt lat="45.2944" lon="5.76381">
        <ele>1336</ele>
        <time>2016-02-06T11:36:39Z</time>
      </trkpt>
      <trkpt lat="45.29436" lon="5.76367">
        <ele>1336</ele>
        <time>2016-02-06T11:36:43Z</time>
      </trkpt>
      <trkpt lat="45.29435" lon="5.76354">
        <ele>1337</ele>
        <time>2016-02-06T11:36:48Z</time>
      </trkpt>
      <trkpt lat="45.29437" lon="5.76338">
        <ele>1336</ele>
        <time>2016-02-06T11:36:52Z</time>
      </trkpt>
      <trkpt lat="45.29449" lon="5.76329">
        <ele>1334</ele>
        <time>2016-02-06T11:36:57Z</time>
      </trkpt>
      <trkpt lat="45.29458" lon="5.76323">
        <ele>1334</ele>
        <time>2016-02-06T11:37:02Z</time>
      </trkpt>
      <trkpt lat="45.29458" lon="5.76331">
        <ele>1332</ele>
        <time>2016-02-06T11:38:57Z</time>
      </trkpt>
      <trkpt lat="45.29461" lon="5.76342">
        <ele>1327</ele>
        <time>2016-02-06T11:39:06Z</time>
      </trkpt>
      <trkpt lat="45.29474" lon="5.76345">
        <ele>1330</ele>
        <time>2016-02-06T11:39:11Z</time>
      </trkpt>
      <trkpt lat="45.29482" lon="5.76343">
        <ele>1331</ele>
        <time>2016-02-06T11:39:14Z</time>
      </trkpt>
      <trkpt lat="45.29489" lon="5.76337">
        <ele>1331</ele>
        <time>2016-02-06T11:39:19Z</time>
      </trkpt>
      <trkpt lat="45.29496" lon="5.76329">
        <ele>1332</ele>
        <time>2016-02-06T11:39:24Z</time>
      </trkpt>
      <trkpt lat="45.29503" lon="5.76322">
        <ele>1325</ele>
        <time>2016-02-06T11:39:33Z</time>
      </trkpt>
      <trkpt lat="45.29511" lon="5.76326">
        <ele>1326</ele>
        <time>2016-02-06T11:39:46Z</time>
      </trkpt>
      <trkpt lat="45.29518" lon="5.76327">
        <ele>1324</ele>
        <time>2016-02-06T11:39:50Z</time>
      </trkpt>
      <trkpt lat="45.29526" lon="5.76332">
        <ele>1328</ele>
        <time>2016-02-06T11:39:55Z</time>
      </trkpt>
      <trkpt lat="45.29533" lon="5.76339">
        <ele>1326</ele>
        <time>2016-02-06T11:40:02Z</time>
      </trkpt>
      <trkpt lat="45.29538" lon="5.76349">
        <ele>1327</ele>
        <time>2016-02-06T11:40:07Z</time>
      </trkpt>
      <trkpt lat="45.29542" lon="5.76359">
        <ele>1327</ele>
        <time>2016-02-06T11:40:12Z</time>
      </trkpt>
      <trkpt lat="45.29533" lon="5.76357">
        <ele>1326</ele>
        <time>2016-02-06T11:41:37Z</time>
      </trkpt>
      <trkpt lat="45.29528" lon="5.76348">
        <ele>1326</ele>
        <time>2016-02-06T11:41:52Z</time>
      </trkpt>
      <trkpt lat="45.29521" lon="5.76343">
        <ele>1329</ele>
        <time>2016-02-06T11:41:53Z</time>
      </trkpt>
      <trkpt lat="45.29517" lon="5.76339">
        <ele>1325</ele>
        <time>2016-02-06T11:42:00Z</time>
      </trkpt>
      <trkpt lat="45.29504" lon="5.76339">
        <ele>1324</ele>
        <time>2016-02-06T11:42:05Z</time>
      </trkpt>
      <trkpt lat="45.29498" lon="5.76335">
        <ele>1324</ele>
        <time>2016-02-06T11:42:12Z</time>
      </trkpt>
      <trkpt lat="45.29491" lon="5.76334">
        <ele>1327</ele>
        <time>2016-02-06T11:42:17Z</time>
      </trkpt>
      <trkpt lat="45.29487" lon="5.76332">
        <ele>1328</ele>
        <time>2016-02-06T11:42:27Z</time>
      </trkpt>
      <trkpt lat="45.29476" lon="5.76327">
        <ele>1327</ele>
        <time>2016-02-06T11:42:32Z</time>
      </trkpt>
      <trkpt lat="45.2947" lon="5.76324">
        <ele>1328</ele>
        <time>2016-02-06T11:42:37Z</time>
      </trkpt>
      <trkpt lat="45.29455" lon="5.76328">
        <ele>1328</ele>
        <time>2016-02-06T11:42:52Z</time>
      </trkpt>
      <trkpt lat="45.2946" lon="5.76325">
        <ele>1336</ele>
        <time>2016-02-06T11:55:06Z</time>
      </trkpt>
      <trkpt lat="45.2946" lon="5.76325">
        <ele>1336</ele>
        <time>2016-02-06T11:55:06Z</time>
      </trkpt>
    </trkseg>
  </trk>
</gpx>